<?xml version="1.0" encoding="UTF-8" standalone="no" ?>
<gpx xmlns="http://www.topografix.com/GPX/1/1" xmlns:xsi="http://www.w3.org/2001/XMLSchema-instance" xsi:schemaLocation="http://www.topografix.com/GPX/1/1 http://www.topografix.com/GPX/1/1/gpx.xsd" version="1.1" creator="VisuGPX - https://www.visugpx.com">
  <metadata>
    <name>Mont-Aubert</name>
  </metadata>
  <trk>
    <name><![CDATA[Mont-Aubert_1]]></name>
    <trkseg>
      <trkpt lat="46.87749" lon="6.63987">
        <ele>1233.74</ele>
        <time>2020-11-14T09:50:00.000Z</time>
      </trkpt>
      <trkpt lat="46.87749" lon="6.63987">
        <ele>1233.52</ele>
        <time>2020-11-14T09:50:00.000Z</time>
      </trkpt>
      <trkpt lat="46.87747" lon="6.63974">
        <ele>1233.07</ele>
        <time>2020-11-14T09:50:02.043Z</time>
      </trkpt>
      <trkpt lat="46.87742" lon="6.63956">
        <ele>1232.77</ele>
        <time>2020-11-14T09:50:05.932Z</time>
      </trkpt>
      <trkpt lat="46.87742" lon="6.63955">
        <ele>1232.77</ele>
        <time>2020-11-14T09:50:06.560Z</time>
      </trkpt>
      <trkpt lat="46.87741" lon="6.63954">
        <ele>1232.47</ele>
        <time>2020-11-14T09:50:06.818Z</time>
      </trkpt>
      <trkpt lat="46.87735" lon="6.6394">
        <ele>1232.01</ele>
        <time>2020-11-14T09:50:09.560Z</time>
      </trkpt>
      <trkpt lat="46.87727" lon="6.63922">
        <ele>1231.71</ele>
        <time>2020-11-14T09:50:13.965Z</time>
      </trkpt>
      <trkpt lat="46.8772" lon="6.63912">
        <ele>1231.42</ele>
        <time>2020-11-14T09:50:16.617Z</time>
      </trkpt>
      <trkpt lat="46.8772" lon="6.63911">
        <ele>1231.42</ele>
        <time>2020-11-14T09:50:17.244Z</time>
      </trkpt>
      <trkpt lat="46.87719" lon="6.63911">
        <ele>1231.12</ele>
        <time>2020-11-14T09:50:17.457Z</time>
      </trkpt>
      <trkpt lat="46.8771" lon="6.63903">
        <ele>1230.38</ele>
        <time>2020-11-14T09:50:19.699Z</time>
      </trkpt>
      <trkpt lat="46.877" lon="6.63899">
        <ele>1229.89</ele>
        <time>2020-11-14T09:50:22.069Z</time>
      </trkpt>
      <trkpt lat="46.87691" lon="6.63898">
        <ele>1229.46</ele>
        <time>2020-11-14T09:50:24.125Z</time>
      </trkpt>
      <trkpt lat="46.87675" lon="6.63899">
        <ele>1228.99</ele>
        <time>2020-11-14T09:50:28.480Z</time>
      </trkpt>
      <trkpt lat="46.87671" lon="6.63894">
        <ele>1228.9</ele>
        <time>2020-11-14T09:50:30.123Z</time>
      </trkpt>
      <trkpt lat="46.87663" lon="6.63883">
        <ele>1228.34</ele>
        <time>2020-11-14T09:50:32.552Z</time>
      </trkpt>
      <trkpt lat="46.87662" lon="6.63881">
        <ele>1227.99</ele>
        <time>2020-11-14T09:50:32.913Z</time>
      </trkpt>
      <trkpt lat="46.87662" lon="6.6388">
        <ele>1227.99</ele>
        <time>2020-11-14T09:50:33.540Z</time>
      </trkpt>
      <trkpt lat="46.87652" lon="6.63864">
        <ele>1227.63</ele>
        <time>2020-11-14T09:50:37.797Z</time>
      </trkpt>
      <trkpt lat="46.87599" lon="6.6375">
        <ele>1224</ele>
        <time>2020-11-14T09:51:01.158Z</time>
      </trkpt>
      <trkpt lat="46.8759" lon="6.63732">
        <ele>1223.44</ele>
        <time>2020-11-14T09:51:05.003Z</time>
      </trkpt>
      <trkpt lat="46.87579" lon="6.63718">
        <ele>1222.67</ele>
        <time>2020-11-14T09:51:08.179Z</time>
      </trkpt>
      <trkpt lat="46.87569" lon="6.63709">
        <ele>1222.53</ele>
        <time>2020-11-14T09:51:12.092Z</time>
      </trkpt>
      <trkpt lat="46.87559" lon="6.63703">
        <ele>1222.11</ele>
        <time>2020-11-14T09:51:14.763Z</time>
      </trkpt>
      <trkpt lat="46.87554" lon="6.63719">
        <ele>1221.6</ele>
        <time>2020-11-14T09:51:17.636Z</time>
      </trkpt>
      <trkpt lat="46.87538" lon="6.63759">
        <ele>1220.97</ele>
        <time>2020-11-14T09:51:27.207Z</time>
      </trkpt>
      <trkpt lat="46.87531" lon="6.63773">
        <ele>1221.05</ele>
        <time>2020-11-14T09:51:38.812Z</time>
      </trkpt>
      <trkpt lat="46.87531" lon="6.63773">
        <ele>1221.05</ele>
        <time>2020-11-14T09:51:38.812Z</time>
      </trkpt>
      <trkpt lat="46.87501" lon="6.63828">
        <ele>1221.13</ele>
        <time>2020-11-14T09:52:23.663Z</time>
      </trkpt>
      <trkpt lat="46.8749" lon="6.63842">
        <ele>1221.34</ele>
        <time>2020-11-14T09:52:39.087Z</time>
      </trkpt>
      <trkpt lat="46.87474" lon="6.63857">
        <ele>1222.14</ele>
        <time>2020-11-14T09:53:07.489Z</time>
      </trkpt>
      <trkpt lat="46.87459" lon="6.63878">
        <ele>1222.72</ele>
        <time>2020-11-14T09:53:33.110Z</time>
      </trkpt>
      <trkpt lat="46.87432" lon="6.63923">
        <ele>1224.49</ele>
        <time>2020-11-14T09:54:35.347Z</time>
      </trkpt>
      <trkpt lat="46.87406" lon="6.63963">
        <ele>1227.15</ele>
        <time>2020-11-14T09:55:45.329Z</time>
      </trkpt>
      <trkpt lat="46.87387" lon="6.63988">
        <ele>1229.07</ele>
        <time>2020-11-14T09:56:34.449Z</time>
      </trkpt>
      <trkpt lat="46.87339" lon="6.64034">
        <ele>1234.49</ele>
        <time>2020-11-14T09:58:44.448Z</time>
      </trkpt>
      <trkpt lat="46.87331" lon="6.64044">
        <ele>1234.95</ele>
        <time>2020-11-14T09:59:00.564Z</time>
      </trkpt>
      <trkpt lat="46.87351" lon="6.64099">
        <ele>1234.92</ele>
        <time>2020-11-14T09:59:39.252Z</time>
      </trkpt>
      <trkpt lat="46.87361" lon="6.64128">
        <ele>1234.77</ele>
        <time>2020-11-14T09:59:57.729Z</time>
      </trkpt>
      <trkpt lat="46.8736" lon="6.64128">
        <ele>1234.77</ele>
        <time>2020-11-14T09:59:58.647Z</time>
      </trkpt>
      <trkpt lat="46.87363" lon="6.64136">
        <ele>1234.61</ele>
        <time>2020-11-14T10:00:00.412Z</time>
      </trkpt>
      <trkpt lat="46.87372" lon="6.64171">
        <ele>1234.17</ele>
        <time>2020-11-14T10:00:08.385Z</time>
      </trkpt>
      <trkpt lat="46.87379" lon="6.64201">
        <ele>1233.17</ele>
        <time>2020-11-14T10:00:13.389Z</time>
      </trkpt>
      <trkpt lat="46.87388" lon="6.64261">
        <ele>1230.5</ele>
        <time>2020-11-14T10:00:21.773Z</time>
      </trkpt>
      <trkpt lat="46.87394" lon="6.64303">
        <ele>1228.34</ele>
        <time>2020-11-14T10:00:28.016Z</time>
      </trkpt>
      <trkpt lat="46.87395" lon="6.64325">
        <ele>1227.15</ele>
        <time>2020-11-14T10:00:31.224Z</time>
      </trkpt>
      <trkpt lat="46.87395" lon="6.64358">
        <ele>1225.2</ele>
        <time>2020-11-14T10:00:36.026Z</time>
      </trkpt>
      <trkpt lat="46.87393" lon="6.64402">
        <ele>1222.9</ele>
        <time>2020-11-14T10:00:42.442Z</time>
      </trkpt>
      <trkpt lat="46.87387" lon="6.64491">
        <ele>1218.45</ele>
        <time>2020-11-14T10:00:55.455Z</time>
      </trkpt>
      <trkpt lat="46.87388" lon="6.64506">
        <ele>1217.58</ele>
        <time>2020-11-14T10:00:57.648Z</time>
      </trkpt>
      <trkpt lat="46.87388" lon="6.64519">
        <ele>1216.93</ele>
        <time>2020-11-14T10:00:59.540Z</time>
      </trkpt>
      <trkpt lat="46.8739" lon="6.64531">
        <ele>1216.37</ele>
        <time>2020-11-14T10:01:01.190Z</time>
      </trkpt>
      <trkpt lat="46.87393" lon="6.64547">
        <ele>1215.64</ele>
        <time>2020-11-14T10:01:03.441Z</time>
      </trkpt>
      <trkpt lat="46.87423" lon="6.64686">
        <ele>1208.91</ele>
        <time>2020-11-14T10:01:24.650Z</time>
      </trkpt>
      <trkpt lat="46.87428" lon="6.64708">
        <ele>1208.21</ele>
        <time>2020-11-14T10:01:28.376Z</time>
      </trkpt>
      <trkpt lat="46.87433" lon="6.64733">
        <ele>1207.61</ele>
        <time>2020-11-14T10:01:33.005Z</time>
      </trkpt>
      <trkpt lat="46.87439" lon="6.64761">
        <ele>1207.21</ele>
        <time>2020-11-14T10:01:39.061Z</time>
      </trkpt>
      <trkpt lat="46.87464" lon="6.64877">
        <ele>1206.32</ele>
        <time>2020-11-14T10:02:07.216Z</time>
      </trkpt>
      <trkpt lat="46.87473" lon="6.64915">
        <ele>1205.1</ele>
        <time>2020-11-14T10:02:13.666Z</time>
      </trkpt>
      <trkpt lat="46.87478" lon="6.6494">
        <ele>1204.05</ele>
        <time>2020-11-14T10:02:17.354Z</time>
      </trkpt>
      <trkpt lat="46.87485" lon="6.64969">
        <ele>1202.6</ele>
        <time>2020-11-14T10:02:21.829Z</time>
      </trkpt>
      <trkpt lat="46.87488" lon="6.64987">
        <ele>1201.95</ele>
        <time>2020-11-14T10:02:24.623Z</time>
      </trkpt>
      <trkpt lat="46.87488" lon="6.64986">
        <ele>1201.95</ele>
        <time>2020-11-14T10:02:25.251Z</time>
      </trkpt>
      <trkpt lat="46.87489" lon="6.64994">
        <ele>1201.29</ele>
        <time>2020-11-14T10:02:26.434Z</time>
      </trkpt>
      <trkpt lat="46.87501" lon="6.6507">
        <ele>1197.44</ele>
        <time>2020-11-14T10:02:37.783Z</time>
      </trkpt>
      <trkpt lat="46.87504" lon="6.65082">
        <ele>1196.97</ele>
        <time>2020-11-14T10:02:39.670Z</time>
      </trkpt>
      <trkpt lat="46.87459" lon="6.65184">
        <ele>1199.3</ele>
        <time>2020-11-14T10:04:22.256Z</time>
      </trkpt>
      <trkpt lat="46.8744" lon="6.65222">
        <ele>1201.55</ele>
        <time>2020-11-14T10:05:21.684Z</time>
      </trkpt>
      <trkpt lat="46.87432" lon="6.65232">
        <ele>1202.35</ele>
        <time>2020-11-14T10:05:42.053Z</time>
      </trkpt>
      <trkpt lat="46.8742" lon="6.65257">
        <ele>1203.7</ele>
        <time>2020-11-14T10:06:19.142Z</time>
      </trkpt>
      <trkpt lat="46.87416" lon="6.65281">
        <ele>1203.88</ele>
        <time>2020-11-14T10:06:36.326Z</time>
      </trkpt>
      <trkpt lat="46.87414" lon="6.65293">
        <ele>1204.06</ele>
        <time>2020-11-14T10:06:45.961Z</time>
      </trkpt>
      <trkpt lat="46.87405" lon="6.65328">
        <ele>1204.31</ele>
        <time>2020-11-14T10:07:11.744Z</time>
      </trkpt>
      <trkpt lat="46.874" lon="6.65343">
        <ele>1204.6</ele>
        <time>2020-11-14T10:07:25.399Z</time>
      </trkpt>
      <trkpt lat="46.87393" lon="6.65361">
        <ele>1205.6</ele>
        <time>2020-11-14T10:07:51.683Z</time>
      </trkpt>
      <trkpt lat="46.87388" lon="6.65373">
        <ele>1206.36</ele>
        <time>2020-11-14T10:08:10.744Z</time>
      </trkpt>
      <trkpt lat="46.87384" lon="6.65385">
        <ele>1207.07</ele>
        <time>2020-11-14T10:08:28.660Z</time>
      </trkpt>
      <trkpt lat="46.8738" lon="6.65398">
        <ele>1207.76</ele>
        <time>2020-11-14T10:08:46.777Z</time>
      </trkpt>
      <trkpt lat="46.87376" lon="6.65409">
        <ele>1208.52</ele>
        <time>2020-11-14T10:09:05.184Z</time>
      </trkpt>
      <trkpt lat="46.8737" lon="6.65421">
        <ele>1209.52</ele>
        <time>2020-11-14T10:09:29.079Z</time>
      </trkpt>
      <trkpt lat="46.87364" lon="6.65428">
        <ele>1210.89</ele>
        <time>2020-11-14T10:09:56.261Z</time>
      </trkpt>
      <trkpt lat="46.87355" lon="6.65437">
        <ele>1212.59</ele>
        <time>2020-11-14T10:10:34.874Z</time>
      </trkpt>
      <trkpt lat="46.87347" lon="6.65446">
        <ele>1214.51</ele>
        <time>2020-11-14T10:11:10.620Z</time>
      </trkpt>
      <trkpt lat="46.87339" lon="6.65457">
        <ele>1216.44</ele>
        <time>2020-11-14T10:11:49.507Z</time>
      </trkpt>
      <trkpt lat="46.87328" lon="6.6548">
        <ele>1219.91</ele>
        <time>2020-11-14T10:12:57.471Z</time>
      </trkpt>
      <trkpt lat="46.87324" lon="6.6549">
        <ele>1221</ele>
        <time>2020-11-14T10:13:25.524Z</time>
      </trkpt>
      <trkpt lat="46.87323" lon="6.65497">
        <ele>1221.76</ele>
        <time>2020-11-14T10:13:42.839Z</time>
      </trkpt>
      <trkpt lat="46.87322" lon="6.65507">
        <ele>1222.58</ele>
        <time>2020-11-14T10:14:03.010Z</time>
      </trkpt>
      <trkpt lat="46.87321" lon="6.65516">
        <ele>1223.04</ele>
        <time>2020-11-14T10:14:14.867Z</time>
      </trkpt>
      <trkpt lat="46.87319" lon="6.65526">
        <ele>1223.98</ele>
        <time>2020-11-14T10:14:39.572Z</time>
      </trkpt>
      <trkpt lat="46.87316" lon="6.65542">
        <ele>1225.55</ele>
        <time>2020-11-14T10:15:19.743Z</time>
      </trkpt>
      <trkpt lat="46.87313" lon="6.65567">
        <ele>1227.56</ele>
        <time>2020-11-14T10:16:08.740Z</time>
      </trkpt>
      <trkpt lat="46.87309" lon="6.65594">
        <ele>1229.5</ele>
        <time>2020-11-14T10:16:55.067Z</time>
      </trkpt>
      <trkpt lat="46.87307" lon="6.65611">
        <ele>1230.55</ele>
        <time>2020-11-14T10:17:20.509Z</time>
      </trkpt>
      <trkpt lat="46.87305" lon="6.65627">
        <ele>1231.5</ele>
        <time>2020-11-14T10:17:43.761Z</time>
      </trkpt>
      <trkpt lat="46.87303" lon="6.65661">
        <ele>1233.99</ele>
        <time>2020-11-14T10:18:43.381Z</time>
      </trkpt>
      <trkpt lat="46.87297" lon="6.65665">
        <ele>1235.43</ele>
        <time>2020-11-14T10:19:06.735Z</time>
      </trkpt>
      <trkpt lat="46.87294" lon="6.65668">
        <ele>1236.36</ele>
        <time>2020-11-14T10:19:19.606Z</time>
      </trkpt>
      <trkpt lat="46.87293" lon="6.65672">
        <ele>1236.93</ele>
        <time>2020-11-14T10:19:29.919Z</time>
      </trkpt>
      <trkpt lat="46.8729" lon="6.65681">
        <ele>1238.52</ele>
        <time>2020-11-14T10:19:54.163Z</time>
      </trkpt>
      <trkpt lat="46.87284" lon="6.65693">
        <ele>1240.96</ele>
        <time>2020-11-14T10:20:30.160Z</time>
      </trkpt>
      <trkpt lat="46.87278" lon="6.65702">
        <ele>1242.83</ele>
        <time>2020-11-14T10:21:00.598Z</time>
      </trkpt>
      <trkpt lat="46.87275" lon="6.65706">
        <ele>1244.15</ele>
        <time>2020-11-14T10:21:14.975Z</time>
      </trkpt>
      <trkpt lat="46.87272" lon="6.65711">
        <ele>1244.99</ele>
        <time>2020-11-14T10:21:31.083Z</time>
      </trkpt>
      <trkpt lat="46.8727" lon="6.65718">
        <ele>1246.05</ele>
        <time>2020-11-14T10:21:49.453Z</time>
      </trkpt>
      <trkpt lat="46.87268" lon="6.65726">
        <ele>1247.24</ele>
        <time>2020-11-14T10:22:10.078Z</time>
      </trkpt>
      <trkpt lat="46.87262" lon="6.65745">
        <ele>1250.28</ele>
        <time>2020-11-14T10:23:00.753Z</time>
      </trkpt>
      <trkpt lat="46.87256" lon="6.65766">
        <ele>1253.61</ele>
        <time>2020-11-14T10:23:55.863Z</time>
      </trkpt>
      <trkpt lat="46.87252" lon="6.65782">
        <ele>1255.93</ele>
        <time>2020-11-14T10:24:37.112Z</time>
      </trkpt>
      <trkpt lat="46.87249" lon="6.65794">
        <ele>1257.41</ele>
        <time>2020-11-14T10:25:08.050Z</time>
      </trkpt>
      <trkpt lat="46.87244" lon="6.65808">
        <ele>1259.68</ele>
        <time>2020-11-14T10:25:46.295Z</time>
      </trkpt>
      <trkpt lat="46.8724" lon="6.6582">
        <ele>1261.12</ele>
        <time>2020-11-14T10:26:18.620Z</time>
      </trkpt>
      <trkpt lat="46.87238" lon="6.65839">
        <ele>1262.63</ele>
        <time>2020-11-14T10:26:55.332Z</time>
      </trkpt>
      <trkpt lat="46.87236" lon="6.65853">
        <ele>1264.02</ele>
        <time>2020-11-14T10:27:29.963Z</time>
      </trkpt>
      <trkpt lat="46.8723" lon="6.65873">
        <ele>1266.75</ele>
        <time>2020-11-14T10:28:22.846Z</time>
      </trkpt>
      <trkpt lat="46.87223" lon="6.65899">
        <ele>1269.54</ele>
        <time>2020-11-14T10:29:30.506Z</time>
      </trkpt>
      <trkpt lat="46.87219" lon="6.65918">
        <ele>1269.86</ele>
        <time>2020-11-14T10:29:46.418Z</time>
      </trkpt>
      <trkpt lat="46.87216" lon="6.65928">
        <ele>1270.14</ele>
        <time>2020-11-14T10:29:56.861Z</time>
      </trkpt>
      <trkpt lat="46.87213" lon="6.65935">
        <ele>1270.85</ele>
        <time>2020-11-14T10:30:14.856Z</time>
      </trkpt>
      <trkpt lat="46.87202" lon="6.65953">
        <ele>1273.16</ele>
        <time>2020-11-14T10:31:13.314Z</time>
      </trkpt>
      <trkpt lat="46.87196" lon="6.65962">
        <ele>1274.24</ele>
        <time>2020-11-14T10:31:40.682Z</time>
      </trkpt>
      <trkpt lat="46.87191" lon="6.65973">
        <ele>1275.07</ele>
        <time>2020-11-14T10:32:00.670Z</time>
      </trkpt>
      <trkpt lat="46.87187" lon="6.65985">
        <ele>1275.86</ele>
        <time>2020-11-14T10:32:19.940Z</time>
      </trkpt>
      <trkpt lat="46.87183" lon="6.65995">
        <ele>1276.68</ele>
        <time>2020-11-14T10:32:39.527Z</time>
      </trkpt>
      <trkpt lat="46.87181" lon="6.66004">
        <ele>1277.36</ele>
        <time>2020-11-14T10:32:55.785Z</time>
      </trkpt>
      <trkpt lat="46.87178" lon="6.66016">
        <ele>1278.42</ele>
        <time>2020-11-14T10:33:22.124Z</time>
      </trkpt>
      <trkpt lat="46.87173" lon="6.66027">
        <ele>1279.28</ele>
        <time>2020-11-14T10:33:42.730Z</time>
      </trkpt>
      <trkpt lat="46.87166" lon="6.66041">
        <ele>1280.28</ele>
        <time>2020-11-14T10:34:07.295Z</time>
      </trkpt>
      <trkpt lat="46.87163" lon="6.66049">
        <ele>1280.6</ele>
        <time>2020-11-14T10:34:17.397Z</time>
      </trkpt>
      <trkpt lat="46.87161" lon="6.6606">
        <ele>1280.93</ele>
        <time>2020-11-14T10:34:29.081Z</time>
      </trkpt>
      <trkpt lat="46.8716" lon="6.66067">
        <ele>1281.17</ele>
        <time>2020-11-14T10:34:36.884Z</time>
      </trkpt>
      <trkpt lat="46.8716" lon="6.66079">
        <ele>1281.51</ele>
        <time>2020-11-14T10:34:49.027Z</time>
      </trkpt>
      <trkpt lat="46.87168" lon="6.66106">
        <ele>1281.41</ele>
        <time>2020-11-14T10:35:06.192Z</time>
      </trkpt>
      <trkpt lat="46.87177" lon="6.66144">
        <ele>1281.36</ele>
        <time>2020-11-14T10:35:30.753Z</time>
      </trkpt>
      <trkpt lat="46.87189" lon="6.66193">
        <ele>1282.66</ele>
        <time>2020-11-14T10:36:19.861Z</time>
      </trkpt>
      <trkpt lat="46.87189" lon="6.66192">
        <ele>1282.66</ele>
        <time>2020-11-14T10:36:20.489Z</time>
      </trkpt>
      <trkpt lat="46.87207" lon="6.66269">
        <ele>1283.95</ele>
        <time>2020-11-14T10:37:25.350Z</time>
      </trkpt>
      <trkpt lat="46.87217" lon="6.66313">
        <ele>1284</ele>
        <time>2020-11-14T10:37:54.883Z</time>
      </trkpt>
      <trkpt lat="46.87226" lon="6.66358">
        <ele>1283.31</ele>
        <time>2020-11-14T10:38:04.384Z</time>
      </trkpt>
      <trkpt lat="46.87232" lon="6.66389">
        <ele>1283.25</ele>
        <time>2020-11-14T10:38:23.799Z</time>
      </trkpt>
      <trkpt lat="46.87236" lon="6.66419">
        <ele>1283.47</ele>
        <time>2020-11-14T10:38:45.034Z</time>
      </trkpt>
      <trkpt lat="46.87241" lon="6.66466">
        <ele>1284.39</ele>
        <time>2020-11-14T10:39:25.338Z</time>
      </trkpt>
      <trkpt lat="46.87244" lon="6.66498">
        <ele>1284.54</ele>
        <time>2020-11-14T10:39:46.959Z</time>
      </trkpt>
      <trkpt lat="46.87245" lon="6.6652">
        <ele>1284.85</ele>
        <time>2020-11-14T10:40:04.012Z</time>
      </trkpt>
      <trkpt lat="46.87243" lon="6.66539">
        <ele>1284.66</ele>
        <time>2020-11-14T10:40:08.253Z</time>
      </trkpt>
      <trkpt lat="46.8724" lon="6.66555">
        <ele>1282.88</ele>
        <time>2020-11-14T10:40:10.667Z</time>
      </trkpt>
      <trkpt lat="46.8724" lon="6.66555">
        <ele>1282.88</ele>
        <time>2020-11-14T10:40:10.667Z</time>
      </trkpt>
      <trkpt lat="46.87235" lon="6.66583">
        <ele>1281.1</ele>
        <time>2020-11-14T10:40:14.878Z</time>
      </trkpt>
      <trkpt lat="46.87232" lon="6.66605">
        <ele>1278.61</ele>
        <time>2020-11-14T10:40:18.142Z</time>
      </trkpt>
      <trkpt lat="46.87233" lon="6.66618">
        <ele>1277.55</ele>
        <time>2020-11-14T10:40:20.046Z</time>
      </trkpt>
      <trkpt lat="46.87233" lon="6.66633">
        <ele>1276.85</ele>
        <time>2020-11-14T10:40:22.228Z</time>
      </trkpt>
      <trkpt lat="46.87237" lon="6.66651">
        <ele>1276.09</ele>
        <time>2020-11-14T10:40:24.913Z</time>
      </trkpt>
      <trkpt lat="46.87247" lon="6.66699">
        <ele>1273.5</ele>
        <time>2020-11-14T10:40:32.214Z</time>
      </trkpt>
      <trkpt lat="46.87253" lon="6.66729">
        <ele>1272.18</ele>
        <time>2020-11-14T10:40:36.541Z</time>
      </trkpt>
      <trkpt lat="46.87258" lon="6.66747">
        <ele>1270.85</ele>
        <time>2020-11-14T10:40:39.368Z</time>
      </trkpt>
      <trkpt lat="46.87264" lon="6.66767">
        <ele>1269.17</ele>
        <time>2020-11-14T10:40:42.547Z</time>
      </trkpt>
      <trkpt lat="46.87267" lon="6.66779">
        <ele>1268.39</ele>
        <time>2020-11-14T10:40:44.406Z</time>
      </trkpt>
      <trkpt lat="46.87267" lon="6.66787">
        <ele>1267.73</ele>
        <time>2020-11-14T10:40:45.570Z</time>
      </trkpt>
      <trkpt lat="46.87265" lon="6.66795">
        <ele>1267.1</ele>
        <time>2020-11-14T10:40:46.809Z</time>
      </trkpt>
      <trkpt lat="46.8726" lon="6.668">
        <ele>1266.35</ele>
        <time>2020-11-14T10:40:48.098Z</time>
      </trkpt>
      <trkpt lat="46.87241" lon="6.66818">
        <ele>1265.44</ele>
        <time>2020-11-14T10:40:53.620Z</time>
      </trkpt>
      <trkpt lat="46.87237" lon="6.66822">
        <ele>1264.54</ele>
        <time>2020-11-14T10:40:54.651Z</time>
      </trkpt>
      <trkpt lat="46.87232" lon="6.66828">
        <ele>1264.28</ele>
        <time>2020-11-14T10:40:56.229Z</time>
      </trkpt>
      <trkpt lat="46.87222" lon="6.66845">
        <ele>1263.8</ele>
        <time>2020-11-14T10:41:00.313Z</time>
      </trkpt>
      <trkpt lat="46.87216" lon="6.66858">
        <ele>1263.42</ele>
        <time>2020-11-14T10:41:03.052Z</time>
      </trkpt>
      <trkpt lat="46.87215" lon="6.66865">
        <ele>1263.35</ele>
        <time>2020-11-14T10:41:04.632Z</time>
      </trkpt>
      <trkpt lat="46.8721" lon="6.66864">
        <ele>1263.11</ele>
        <time>2020-11-14T10:41:05.783Z</time>
      </trkpt>
      <trkpt lat="46.87204" lon="6.66861">
        <ele>1262.89</ele>
        <time>2020-11-14T10:41:07.415Z</time>
      </trkpt>
      <trkpt lat="46.87193" lon="6.66883">
        <ele>1262.21</ele>
        <time>2020-11-14T10:41:12.126Z</time>
      </trkpt>
      <trkpt lat="46.87189" lon="6.66892">
        <ele>1262</ele>
        <time>2020-11-14T10:41:14.137Z</time>
      </trkpt>
      <trkpt lat="46.87186" lon="6.66901">
        <ele>1262.16</ele>
        <time>2020-11-14T10:41:22.134Z</time>
      </trkpt>
      <trkpt lat="46.87183" lon="6.66917">
        <ele>1261.78</ele>
        <time>2020-11-14T10:41:25.089Z</time>
      </trkpt>
      <trkpt lat="46.8718" lon="6.66928">
        <ele>1261.66</ele>
        <time>2020-11-14T10:41:27.689Z</time>
      </trkpt>
      <trkpt lat="46.87176" lon="6.6694">
        <ele>1261.48</ele>
        <time>2020-11-14T10:41:30.452Z</time>
      </trkpt>
      <trkpt lat="46.87168" lon="6.66962">
        <ele>1261.06</ele>
        <time>2020-11-14T10:41:35.326Z</time>
      </trkpt>
      <trkpt lat="46.87155" lon="6.67005">
        <ele>1261.07</ele>
        <time>2020-11-14T10:42:04.925Z</time>
      </trkpt>
      <trkpt lat="46.8715" lon="6.67026">
        <ele>1261.57</ele>
        <time>2020-11-14T10:42:24.903Z</time>
      </trkpt>
      <trkpt lat="46.87145" lon="6.67043">
        <ele>1261.95</ele>
        <time>2020-11-14T10:42:40.930Z</time>
      </trkpt>
      <trkpt lat="46.87135" lon="6.67068">
        <ele>1262.67</ele>
        <time>2020-11-14T10:43:08.193Z</time>
      </trkpt>
      <trkpt lat="46.87135" lon="6.67068">
        <ele>1262.67</ele>
        <time>2020-11-14T10:43:08.193Z</time>
      </trkpt>
      <trkpt lat="46.87125" lon="6.67096">
        <ele>1263.39</ele>
        <time>2020-11-14T10:43:36.742Z</time>
      </trkpt>
      <trkpt lat="46.87121" lon="6.6711">
        <ele>1263.62</ele>
        <time>2020-11-14T10:43:48.695Z</time>
      </trkpt>
      <trkpt lat="46.87115" lon="6.67141">
        <ele>1264.06</ele>
        <time>2020-11-14T10:44:13.450Z</time>
      </trkpt>
      <trkpt lat="46.87105" lon="6.67186">
        <ele>1267.64</ele>
        <time>2020-11-14T10:45:39.659Z</time>
      </trkpt>
      <trkpt lat="46.87104" lon="6.67198">
        <ele>1268.86</ele>
        <time>2020-11-14T10:46:08.930Z</time>
      </trkpt>
      <trkpt lat="46.871" lon="6.67224">
        <ele>1271.93</ele>
        <time>2020-11-14T10:47:13.460Z</time>
      </trkpt>
      <trkpt lat="46.87098" lon="6.67239">
        <ele>1273.23</ele>
        <time>2020-11-14T10:47:46.203Z</time>
      </trkpt>
      <trkpt lat="46.87095" lon="6.67252">
        <ele>1274.28</ele>
        <time>2020-11-14T10:48:11.550Z</time>
      </trkpt>
      <trkpt lat="46.87094" lon="6.6726">
        <ele>1274.84</ele>
        <time>2020-11-14T10:48:24.921Z</time>
      </trkpt>
      <trkpt lat="46.87094" lon="6.67266">
        <ele>1275.21</ele>
        <time>2020-11-14T10:48:33.862Z</time>
      </trkpt>
      <trkpt lat="46.87094" lon="6.67274">
        <ele>1275.68</ele>
        <time>2020-11-14T10:48:45.348Z</time>
      </trkpt>
      <trkpt lat="46.87096" lon="6.6728">
        <ele>1276.03</ele>
        <time>2020-11-14T10:48:54.229Z</time>
      </trkpt>
      <trkpt lat="46.871" lon="6.67285">
        <ele>1276.67</ele>
        <time>2020-11-14T10:49:10.150Z</time>
      </trkpt>
      <trkpt lat="46.87106" lon="6.67292">
        <ele>1277.15</ele>
        <time>2020-11-14T10:49:23.576Z</time>
      </trkpt>
      <trkpt lat="46.8711" lon="6.67298">
        <ele>1277.54</ele>
        <time>2020-11-14T10:49:34.010Z</time>
      </trkpt>
      <trkpt lat="46.87111" lon="6.67303">
        <ele>1277.82</ele>
        <time>2020-11-14T10:49:41.049Z</time>
      </trkpt>
      <trkpt lat="46.87115" lon="6.6733">
        <ele>1281.69</ele>
        <time>2020-11-14T10:50:47.942Z</time>
      </trkpt>
      <trkpt lat="46.87119" lon="6.67346">
        <ele>1283.24</ele>
        <time>2020-11-14T10:51:28.986Z</time>
      </trkpt>
      <trkpt lat="46.87119" lon="6.67345">
        <ele>1283.24</ele>
        <time>2020-11-14T10:51:29.614Z</time>
      </trkpt>
      <trkpt lat="46.87121" lon="6.67355">
        <ele>1284.8</ele>
        <time>2020-11-14T10:51:54.842Z</time>
      </trkpt>
      <trkpt lat="46.87122" lon="6.67365">
        <ele>1285.95</ele>
        <time>2020-11-14T10:52:19.313Z</time>
      </trkpt>
      <trkpt lat="46.87122" lon="6.67375">
        <ele>1287.46</ele>
        <time>2020-11-14T10:52:43.527Z</time>
      </trkpt>
      <trkpt lat="46.8712" lon="6.67381">
        <ele>1288.52</ele>
        <time>2020-11-14T10:52:59.690Z</time>
      </trkpt>
      <trkpt lat="46.87102" lon="6.67418">
        <ele>1293.44</ele>
        <time>2020-11-14T10:54:49.648Z</time>
      </trkpt>
      <trkpt lat="46.87095" lon="6.67436">
        <ele>1294.89</ele>
        <time>2020-11-14T10:55:24.271Z</time>
      </trkpt>
      <trkpt lat="46.87091" lon="6.67444">
        <ele>1295.79</ele>
        <time>2020-11-14T10:55:48.061Z</time>
      </trkpt>
      <trkpt lat="46.8708" lon="6.67457">
        <ele>1297.08</ele>
        <time>2020-11-14T10:56:19.169Z</time>
      </trkpt>
      <trkpt lat="46.87069" lon="6.67473">
        <ele>1298.68</ele>
        <time>2020-11-14T10:56:57.381Z</time>
      </trkpt>
      <trkpt lat="46.87061" lon="6.6748">
        <ele>1299.58</ele>
        <time>2020-11-14T10:57:18.917Z</time>
      </trkpt>
      <trkpt lat="46.87061" lon="6.67481">
        <ele>1299.58</ele>
        <time>2020-11-14T10:57:19.545Z</time>
      </trkpt>
      <trkpt lat="46.8706" lon="6.67482">
        <ele>1300.48</ele>
        <time>2020-11-14T10:57:23.835Z</time>
      </trkpt>
      <trkpt lat="46.8705" lon="6.67489">
        <ele>1302.29</ele>
        <time>2020-11-14T10:58:03.100Z</time>
      </trkpt>
      <trkpt lat="46.87042" lon="6.67495">
        <ele>1303.24</ele>
        <time>2020-11-14T10:58:25.824Z</time>
      </trkpt>
      <trkpt lat="46.87033" lon="6.67501">
        <ele>1303.72</ele>
        <time>2020-11-14T10:58:41.553Z</time>
      </trkpt>
      <trkpt lat="46.87025" lon="6.67509">
        <ele>1303.52</ele>
        <time>2020-11-14T10:58:44.455Z</time>
      </trkpt>
      <trkpt lat="46.87018" lon="6.6752">
        <ele>1303.55</ele>
        <time>2020-11-14T10:58:54.148Z</time>
      </trkpt>
      <trkpt lat="46.8701" lon="6.67536">
        <ele>1304.35</ele>
        <time>2020-11-14T10:59:17.276Z</time>
      </trkpt>
      <trkpt lat="46.87006" lon="6.67548">
        <ele>1305.14</ele>
        <time>2020-11-14T10:59:36.546Z</time>
      </trkpt>
      <trkpt lat="46.87001" lon="6.67558">
        <ele>1305.62</ele>
        <time>2020-11-14T10:59:50.767Z</time>
      </trkpt>
      <trkpt lat="46.86997" lon="6.6757">
        <ele>1306.36</ele>
        <time>2020-11-14T11:00:09.169Z</time>
      </trkpt>
      <trkpt lat="46.86994" lon="6.6758">
        <ele>1306.84</ele>
        <time>2020-11-14T11:00:22.395Z</time>
      </trkpt>
      <trkpt lat="46.86993" lon="6.6759">
        <ele>1307.16</ele>
        <time>2020-11-14T11:00:33.227Z</time>
      </trkpt>
      <trkpt lat="46.86994" lon="6.67601">
        <ele>1306.85</ele>
        <time>2020-11-14T11:00:35.066Z</time>
      </trkpt>
      <trkpt lat="46.86997" lon="6.67612">
        <ele>1307.05</ele>
        <time>2020-11-14T11:00:44.675Z</time>
      </trkpt>
      <trkpt lat="46.87" lon="6.67626">
        <ele>1307.53</ele>
        <time>2020-11-14T11:01:00.556Z</time>
      </trkpt>
      <trkpt lat="46.87004" lon="6.67642">
        <ele>1308.11</ele>
        <time>2020-11-14T11:01:19.232Z</time>
      </trkpt>
      <trkpt lat="46.87006" lon="6.67659">
        <ele>1308.35</ele>
        <time>2020-11-14T11:01:32.542Z</time>
      </trkpt>
      <trkpt lat="46.87012" lon="6.67698">
        <ele>1310.07</ele>
        <time>2020-11-14T11:02:20.487Z</time>
      </trkpt>
      <trkpt lat="46.87019" lon="6.67741">
        <ele>1312.15</ele>
        <time>2020-11-14T11:03:15.836Z</time>
      </trkpt>
      <trkpt lat="46.87019" lon="6.6774">
        <ele>1312.15</ele>
        <time>2020-11-14T11:03:16.464Z</time>
      </trkpt>
      <trkpt lat="46.87022" lon="6.67756">
        <ele>1314.24</ele>
        <time>2020-11-14T11:03:56.637Z</time>
      </trkpt>
      <trkpt lat="46.87026" lon="6.67776">
        <ele>1315.82</ele>
        <time>2020-11-14T11:04:34.701Z</time>
      </trkpt>
      <trkpt lat="46.87029" lon="6.67787">
        <ele>1316.53</ele>
        <time>2020-11-14T11:04:51.964Z</time>
      </trkpt>
      <trkpt lat="46.87037" lon="6.67809">
        <ele>1317.96</ele>
        <time>2020-11-14T11:05:27.140Z</time>
      </trkpt>
      <trkpt lat="46.87049" lon="6.67839">
        <ele>1319.71</ele>
        <time>2020-11-14T11:06:12.288Z</time>
      </trkpt>
      <trkpt lat="46.87062" lon="6.67871">
        <ele>1320.5</ele>
        <time>2020-11-14T11:06:44.940Z</time>
      </trkpt>
      <trkpt lat="46.87072" lon="6.67894">
        <ele>1320.38</ele>
        <time>2020-11-14T11:07:00.515Z</time>
      </trkpt>
      <trkpt lat="46.8708" lon="6.6791">
        <ele>1320.1</ele>
        <time>2020-11-14T11:07:04.572Z</time>
      </trkpt>
      <trkpt lat="46.87087" lon="6.6792">
        <ele>1319.76</ele>
        <time>2020-11-14T11:07:07.089Z</time>
      </trkpt>
      <trkpt lat="46.87086" lon="6.6792">
        <ele>1319.76</ele>
        <time>2020-11-14T11:07:08.007Z</time>
      </trkpt>
      <trkpt lat="46.87093" lon="6.67929">
        <ele>1319.42</ele>
        <time>2020-11-14T11:07:10.363Z</time>
      </trkpt>
      <trkpt lat="46.87103" lon="6.67945">
        <ele>1318.5</ele>
        <time>2020-11-14T11:07:13.357Z</time>
      </trkpt>
      <trkpt lat="46.87111" lon="6.67958">
        <ele>1317.77</ele>
        <time>2020-11-14T11:07:15.793Z</time>
      </trkpt>
      <trkpt lat="46.87118" lon="6.67967">
        <ele>1316.93</ele>
        <time>2020-11-14T11:07:17.776Z</time>
      </trkpt>
      <trkpt lat="46.8713" lon="6.67976">
        <ele>1316.16</ele>
        <time>2020-11-14T11:07:20.612Z</time>
      </trkpt>
      <trkpt lat="46.87144" lon="6.67986">
        <ele>1314.65</ele>
        <time>2020-11-14T11:07:23.928Z</time>
      </trkpt>
      <trkpt lat="46.87157" lon="6.67994">
        <ele>1313.35</ele>
        <time>2020-11-14T11:07:26.930Z</time>
      </trkpt>
      <trkpt lat="46.87166" lon="6.67996">
        <ele>1311.87</ele>
        <time>2020-11-14T11:07:28.867Z</time>
      </trkpt>
      <trkpt lat="46.87179" lon="6.68002">
        <ele>1309.56</ele>
        <time>2020-11-14T11:07:31.769Z</time>
      </trkpt>
      <trkpt lat="46.87188" lon="6.68005">
        <ele>1308.35</ele>
        <time>2020-11-14T11:07:33.734Z</time>
      </trkpt>
      <trkpt lat="46.872" lon="6.68009">
        <ele>1306.92</ele>
        <time>2020-11-14T11:07:36.353Z</time>
      </trkpt>
      <trkpt lat="46.87201" lon="6.68009">
        <ele>1306.51</ele>
        <time>2020-11-14T11:07:36.566Z</time>
      </trkpt>
      <trkpt lat="46.872" lon="6.68009">
        <ele>1306.51</ele>
        <time>2020-11-14T11:07:37.484Z</time>
      </trkpt>
      <trkpt lat="46.87209" lon="6.6801">
        <ele>1306.1</ele>
        <time>2020-11-14T11:07:39.582Z</time>
      </trkpt>
      <trkpt lat="46.87216" lon="6.68013">
        <ele>1305.39</ele>
        <time>2020-11-14T11:07:41.135Z</time>
      </trkpt>
      <trkpt lat="46.87222" lon="6.68019">
        <ele>1304.42</ele>
        <time>2020-11-14T11:07:42.682Z</time>
      </trkpt>
      <trkpt lat="46.87228" lon="6.68026">
        <ele>1303.73</ele>
        <time>2020-11-14T11:07:44.315Z</time>
      </trkpt>
      <trkpt lat="46.87231" lon="6.68031">
        <ele>1303.29</ele>
        <time>2020-11-14T11:07:45.283Z</time>
      </trkpt>
      <trkpt lat="46.87241" lon="6.68055">
        <ele>1302.62</ele>
        <time>2020-11-14T11:07:50.219Z</time>
      </trkpt>
      <trkpt lat="46.87248" lon="6.68068">
        <ele>1302.69</ele>
        <time>2020-11-14T11:08:01.232Z</time>
      </trkpt>
      <trkpt lat="46.87262" lon="6.68099">
        <ele>1303.68</ele>
        <time>2020-11-14T11:08:37.505Z</time>
      </trkpt>
      <trkpt lat="46.87269" lon="6.68113">
        <ele>1303.65</ele>
        <time>2020-11-14T11:08:47.987Z</time>
      </trkpt>
      <trkpt lat="46.87274" lon="6.68124">
        <ele>1303.62</ele>
        <time>2020-11-14T11:08:55.877Z</time>
      </trkpt>
      <trkpt lat="46.87274" lon="6.68133">
        <ele>1303.53</ele>
        <time>2020-11-14T11:08:57.859Z</time>
      </trkpt>
      <trkpt lat="46.87269" lon="6.68192">
        <ele>1302.18</ele>
        <time>2020-11-14T11:09:08.475Z</time>
      </trkpt>
      <trkpt lat="46.87267" lon="6.68202">
        <ele>1301.55</ele>
        <time>2020-11-14T11:09:09.991Z</time>
      </trkpt>
      <trkpt lat="46.87264" lon="6.68211">
        <ele>1300.76</ele>
        <time>2020-11-14T11:09:11.448Z</time>
      </trkpt>
      <trkpt lat="46.87259" lon="6.6822">
        <ele>1299.81</ele>
        <time>2020-11-14T11:09:13.136Z</time>
      </trkpt>
      <trkpt lat="46.87254" lon="6.68226">
        <ele>1298.95</ele>
        <time>2020-11-14T11:09:14.512Z</time>
      </trkpt>
      <trkpt lat="46.87232" lon="6.68252">
        <ele>1295.81</ele>
        <time>2020-11-14T11:09:20.532Z</time>
      </trkpt>
      <trkpt lat="46.87228" lon="6.68258">
        <ele>1295.2</ele>
        <time>2020-11-14T11:09:21.752Z</time>
      </trkpt>
      <trkpt lat="46.87225" lon="6.68267">
        <ele>1294.54</ele>
        <time>2020-11-14T11:09:23.209Z</time>
      </trkpt>
      <trkpt lat="46.87223" lon="6.68278">
        <ele>1294.02</ele>
        <time>2020-11-14T11:09:24.865Z</time>
      </trkpt>
      <trkpt lat="46.87222" lon="6.68291">
        <ele>1293.67</ele>
        <time>2020-11-14T11:09:27.069Z</time>
      </trkpt>
      <trkpt lat="46.87223" lon="6.6831">
        <ele>1293.27</ele>
        <time>2020-11-14T11:09:30.561Z</time>
      </trkpt>
      <trkpt lat="46.87223" lon="6.68333">
        <ele>1293.17</ele>
        <time>2020-11-14T11:09:43.717Z</time>
      </trkpt>
      <trkpt lat="46.87223" lon="6.68351">
        <ele>1292.97</ele>
        <time>2020-11-14T11:09:47.600Z</time>
      </trkpt>
      <trkpt lat="46.87222" lon="6.68365">
        <ele>1292.97</ele>
        <time>2020-11-14T11:09:56.436Z</time>
      </trkpt>
      <trkpt lat="46.8722" lon="6.68378">
        <ele>1292.88</ele>
        <time>2020-11-14T11:09:59.555Z</time>
      </trkpt>
      <trkpt lat="46.87219" lon="6.68381">
        <ele>1292.75</ele>
        <time>2020-11-14T11:10:00.035Z</time>
      </trkpt>
      <trkpt lat="46.87219" lon="6.68381">
        <ele>1292.75</ele>
        <time>2020-11-14T11:10:00.035Z</time>
      </trkpt>
      <trkpt lat="46.87217" lon="6.68388">
        <ele>1292.61</ele>
        <time>2020-11-14T11:10:01.481Z</time>
      </trkpt>
      <trkpt lat="46.87213" lon="6.68397">
        <ele>1291.89</ele>
        <time>2020-11-14T11:10:03.043Z</time>
      </trkpt>
      <trkpt lat="46.87176" lon="6.68463">
        <ele>1288.46</ele>
        <time>2020-11-14T11:10:15.144Z</time>
      </trkpt>
      <trkpt lat="46.87167" lon="6.68478">
        <ele>1287.69</ele>
        <time>2020-11-14T11:10:18.028Z</time>
      </trkpt>
      <trkpt lat="46.87159" lon="6.68493">
        <ele>1286.75</ele>
        <time>2020-11-14T11:10:20.797Z</time>
      </trkpt>
      <trkpt lat="46.87145" lon="6.68521">
        <ele>1285.2</ele>
        <time>2020-11-14T11:10:25.467Z</time>
      </trkpt>
      <trkpt lat="46.87138" lon="6.68536">
        <ele>1283.92</ele>
        <time>2020-11-14T11:10:28.110Z</time>
      </trkpt>
      <trkpt lat="46.8713" lon="6.68556">
        <ele>1282.87</ele>
        <time>2020-11-14T11:10:31.208Z</time>
      </trkpt>
      <trkpt lat="46.87127" lon="6.68566">
        <ele>1281.87</ele>
        <time>2020-11-14T11:10:32.797Z</time>
      </trkpt>
      <trkpt lat="46.87126" lon="6.68575">
        <ele>1281.44</ele>
        <time>2020-11-14T11:10:34.124Z</time>
      </trkpt>
      <trkpt lat="46.87126" lon="6.68582">
        <ele>1281.07</ele>
        <time>2020-11-14T11:10:35.142Z</time>
      </trkpt>
      <trkpt lat="46.87127" lon="6.6859">
        <ele>1281.14</ele>
        <time>2020-11-14T11:10:40.913Z</time>
      </trkpt>
      <trkpt lat="46.87119" lon="6.68599">
        <ele>1279.7</ele>
        <time>2020-11-14T11:10:43.061Z</time>
      </trkpt>
      <trkpt lat="46.87105" lon="6.6862">
        <ele>1277.36</ele>
        <time>2020-11-14T11:10:47.329Z</time>
      </trkpt>
      <trkpt lat="46.87105" lon="6.6862">
        <ele>1277.36</ele>
        <time>2020-11-14T11:10:47.329Z</time>
      </trkpt>
      <trkpt lat="46.87095" lon="6.68633">
        <ele>1275.02</ele>
        <time>2020-11-14T11:10:50.177Z</time>
      </trkpt>
      <trkpt lat="46.8709" lon="6.68644">
        <ele>1274.18</ele>
        <time>2020-11-14T11:10:52.099Z</time>
      </trkpt>
      <trkpt lat="46.87083" lon="6.6866">
        <ele>1273.04</ele>
        <time>2020-11-14T11:10:54.863Z</time>
      </trkpt>
      <trkpt lat="46.87079" lon="6.68669">
        <ele>1272.94</ele>
        <time>2020-11-14T11:10:57.256Z</time>
      </trkpt>
      <trkpt lat="46.87071" lon="6.68713">
        <ele>1273.56</ele>
        <time>2020-11-14T11:11:32.216Z</time>
      </trkpt>
      <trkpt lat="46.87065" lon="6.6873">
        <ele>1273.96</ele>
        <time>2020-11-14T11:11:48.900Z</time>
      </trkpt>
      <trkpt lat="46.87034" lon="6.68793">
        <ele>1267.08</ele>
        <time>2020-11-14T11:12:00.195Z</time>
      </trkpt>
      <trkpt lat="46.8703" lon="6.68802">
        <ele>1266.45</ele>
        <time>2020-11-14T11:12:01.757Z</time>
      </trkpt>
      <trkpt lat="46.87026" lon="6.68809">
        <ele>1266.16</ele>
        <time>2020-11-14T11:12:03.193Z</time>
      </trkpt>
      <trkpt lat="46.87011" lon="6.68831">
        <ele>1267.25</ele>
        <time>2020-11-14T11:12:37.596Z</time>
      </trkpt>
      <trkpt lat="46.86996" lon="6.68853">
        <ele>1268.13</ele>
        <time>2020-11-14T11:13:09.029Z</time>
      </trkpt>
      <trkpt lat="46.86988" lon="6.68873">
        <ele>1268.58</ele>
        <time>2020-11-14T11:13:28.692Z</time>
      </trkpt>
      <trkpt lat="46.86981" lon="6.68915">
        <ele>1270.24</ele>
        <time>2020-11-14T11:14:18.143Z</time>
      </trkpt>
      <trkpt lat="46.8698" lon="6.68925">
        <ele>1272.08</ele>
        <time>2020-11-14T11:14:42.615Z</time>
      </trkpt>
      <trkpt lat="46.8698" lon="6.68925">
        <ele>1272.08</ele>
        <time>2020-11-14T11:14:42.615Z</time>
      </trkpt>
      <trkpt lat="46.86977" lon="6.68973">
        <ele>1273.92</ele>
        <time>2020-11-14T11:15:37.629Z</time>
      </trkpt>
      <trkpt lat="46.86975" lon="6.68991">
        <ele>1273.6</ele>
        <time>2020-11-14T11:15:41.156Z</time>
      </trkpt>
      <trkpt lat="46.86971" lon="6.69011">
        <ele>1272.67</ele>
        <time>2020-11-14T11:15:43.963Z</time>
      </trkpt>
      <trkpt lat="46.86962" lon="6.69057">
        <ele>1272.16</ele>
        <time>2020-11-14T11:15:54.370Z</time>
      </trkpt>
      <trkpt lat="46.86957" lon="6.69088">
        <ele>1270.52</ele>
        <time>2020-11-14T11:15:59.005Z</time>
      </trkpt>
      <trkpt lat="46.86956" lon="6.69113">
        <ele>1268.85</ele>
        <time>2020-11-14T11:16:02.649Z</time>
      </trkpt>
      <trkpt lat="46.86955" lon="6.69134">
        <ele>1268.16</ele>
        <time>2020-11-14T11:16:05.920Z</time>
      </trkpt>
      <trkpt lat="46.86953" lon="6.69166">
        <ele>1266.34</ele>
        <time>2020-11-14T11:16:10.596Z</time>
      </trkpt>
      <trkpt lat="46.86952" lon="6.69176">
        <ele>1265.59</ele>
        <time>2020-11-14T11:16:12.066Z</time>
      </trkpt>
      <trkpt lat="46.8694" lon="6.69259">
        <ele>1262.83</ele>
        <time>2020-11-14T11:16:25.287Z</time>
      </trkpt>
      <trkpt lat="46.86942" lon="6.69318">
        <ele>1264.26</ele>
        <time>2020-11-14T11:17:20.173Z</time>
      </trkpt>
      <trkpt lat="46.86942" lon="6.69317">
        <ele>1264.26</ele>
        <time>2020-11-14T11:17:20.801Z</time>
      </trkpt>
      <trkpt lat="46.86942" lon="6.69331">
        <ele>1265.69</ele>
        <time>2020-11-14T11:17:54.701Z</time>
      </trkpt>
      <trkpt lat="46.8694" lon="6.69361">
        <ele>1264.27</ele>
        <time>2020-11-14T11:17:59.087Z</time>
      </trkpt>
      <trkpt lat="46.86938" lon="6.69384">
        <ele>1264.73</ele>
        <time>2020-11-14T11:18:18.912Z</time>
      </trkpt>
      <trkpt lat="46.86934" lon="6.69404">
        <ele>1260.77</ele>
        <time>2020-11-14T11:18:21.945Z</time>
      </trkpt>
      <trkpt lat="46.8693" lon="6.69423">
        <ele>1257.93</ele>
        <time>2020-11-14T11:18:24.837Z</time>
      </trkpt>
      <trkpt lat="46.86925" lon="6.69433">
        <ele>1254.75</ele>
        <time>2020-11-14T11:18:26.640Z</time>
      </trkpt>
      <trkpt lat="46.86921" lon="6.69439">
        <ele>1252.7</ele>
        <time>2020-11-14T11:18:27.860Z</time>
      </trkpt>
      <trkpt lat="46.86918" lon="6.69448">
        <ele>1251.05</ele>
        <time>2020-11-14T11:18:29.317Z</time>
      </trkpt>
      <trkpt lat="46.86918" lon="6.69451">
        <ele>1250.57</ele>
        <time>2020-11-14T11:18:29.753Z</time>
      </trkpt>
      <trkpt lat="46.86917" lon="6.69453">
        <ele>1249.92</ele>
        <time>2020-11-14T11:18:30.114Z</time>
      </trkpt>
      <trkpt lat="46.86911" lon="6.69456">
        <ele>1247.34</ele>
        <time>2020-11-14T11:18:31.464Z</time>
      </trkpt>
      <trkpt lat="46.86917" lon="6.69481">
        <ele>1246.8</ele>
        <time>2020-11-14T11:18:36.365Z</time>
      </trkpt>
      <trkpt lat="46.86917" lon="6.69502">
        <ele>1245.47</ele>
        <time>2020-11-14T11:18:39.421Z</time>
      </trkpt>
      <trkpt lat="46.8692" lon="6.6952">
        <ele>1245.19</ele>
        <time>2020-11-14T11:18:43.150Z</time>
      </trkpt>
      <trkpt lat="46.86924" lon="6.6954">
        <ele>1243.93</ele>
        <time>2020-11-14T11:18:46.183Z</time>
      </trkpt>
      <trkpt lat="46.86929" lon="6.69562">
        <ele>1243.33</ele>
        <time>2020-11-14T11:18:50.137Z</time>
      </trkpt>
      <trkpt lat="46.86932" lon="6.69579">
        <ele>1243.6</ele>
        <time>2020-11-14T11:19:04.019Z</time>
      </trkpt>
      <trkpt lat="46.86935" lon="6.69588">
        <ele>1244.47</ele>
        <time>2020-11-14T11:19:26.229Z</time>
      </trkpt>
      <trkpt lat="46.86937" lon="6.69597">
        <ele>1244.45</ele>
        <time>2020-11-14T11:19:31.901Z</time>
      </trkpt>
      <trkpt lat="46.86936" lon="6.69623">
        <ele>1242.58</ele>
        <time>2020-11-14T11:19:35.691Z</time>
      </trkpt>
      <trkpt lat="46.86935" lon="6.69644">
        <ele>1240.33</ele>
        <time>2020-11-14T11:19:38.754Z</time>
      </trkpt>
      <trkpt lat="46.86934" lon="6.6966">
        <ele>1238.58</ele>
        <time>2020-11-14T11:19:41.092Z</time>
      </trkpt>
      <trkpt lat="46.86932" lon="6.69684">
        <ele>1235.21</ele>
        <time>2020-11-14T11:19:44.610Z</time>
      </trkpt>
      <trkpt lat="46.8693" lon="6.69703">
        <ele>1232.37</ele>
        <time>2020-11-14T11:19:47.407Z</time>
      </trkpt>
      <trkpt lat="46.8693" lon="6.69709">
        <ele>1231.72</ele>
        <time>2020-11-14T11:19:48.281Z</time>
      </trkpt>
      <trkpt lat="46.86929" lon="6.69732">
        <ele>1229.09</ele>
        <time>2020-11-14T11:19:51.634Z</time>
      </trkpt>
      <trkpt lat="46.86929" lon="6.69746">
        <ele>1227.62</ele>
        <time>2020-11-14T11:19:53.671Z</time>
      </trkpt>
      <trkpt lat="46.86931" lon="6.69766">
        <ele>1226.05</ele>
        <time>2020-11-14T11:19:56.613Z</time>
      </trkpt>
      <trkpt lat="46.86932" lon="6.69792">
        <ele>1223.31</ele>
        <time>2020-11-14T11:20:00.402Z</time>
      </trkpt>
      <trkpt lat="46.86936" lon="6.69826">
        <ele>1219.34</ele>
        <time>2020-11-14T11:20:05.422Z</time>
      </trkpt>
      <trkpt lat="46.86935" lon="6.69831">
        <ele>1218.96</ele>
        <time>2020-11-14T11:20:06.181Z</time>
      </trkpt>
      <trkpt lat="46.86932" lon="6.69833">
        <ele>1218.08</ele>
        <time>2020-11-14T11:20:06.882Z</time>
      </trkpt>
      <trkpt lat="46.8692" lon="6.69825">
        <ele>1214.66</ele>
        <time>2020-11-14T11:20:09.689Z</time>
      </trkpt>
      <trkpt lat="46.86904" lon="6.69809">
        <ele>1209.61</ele>
        <time>2020-11-14T11:20:13.815Z</time>
      </trkpt>
      <trkpt lat="46.86901" lon="6.6981">
        <ele>1208.16</ele>
        <time>2020-11-14T11:20:14.470Z</time>
      </trkpt>
      <trkpt lat="46.86899" lon="6.69814">
        <ele>1206.7</ele>
        <time>2020-11-14T11:20:15.191Z</time>
      </trkpt>
      <trkpt lat="46.86897" lon="6.69845">
        <ele>1201.52</ele>
        <time>2020-11-14T11:20:19.722Z</time>
      </trkpt>
      <trkpt lat="46.86896" lon="6.69895">
        <ele>1191.89</ele>
        <time>2020-11-14T11:20:27.001Z</time>
      </trkpt>
      <trkpt lat="46.869" lon="6.69925">
        <ele>1187.06</ele>
        <time>2020-11-14T11:20:31.449Z</time>
      </trkpt>
      <trkpt lat="46.86902" lon="6.69937">
        <ele>1185.67</ele>
        <time>2020-11-14T11:20:33.246Z</time>
      </trkpt>
      <trkpt lat="46.86902" lon="6.69936">
        <ele>1185.67</ele>
        <time>2020-11-14T11:20:33.874Z</time>
      </trkpt>
      <trkpt lat="46.86904" lon="6.69945">
        <ele>1184.28</ele>
        <time>2020-11-14T11:20:35.251Z</time>
      </trkpt>
      <trkpt lat="46.86908" lon="6.6997">
        <ele>1180.67</ele>
        <time>2020-11-14T11:20:38.987Z</time>
      </trkpt>
      <trkpt lat="46.86912" lon="6.69989">
        <ele>1178.03</ele>
        <time>2020-11-14T11:20:41.880Z</time>
      </trkpt>
      <trkpt lat="46.86918" lon="6.70009">
        <ele>1175.6</ele>
        <time>2020-11-14T11:20:45.058Z</time>
      </trkpt>
      <trkpt lat="46.86925" lon="6.70032">
        <ele>1172.89</ele>
        <time>2020-11-14T11:20:48.722Z</time>
      </trkpt>
      <trkpt lat="46.86929" lon="6.70051">
        <ele>1170.75</ele>
        <time>2020-11-14T11:20:51.615Z</time>
      </trkpt>
      <trkpt lat="46.86936" lon="6.70091">
        <ele>1166.57</ele>
        <time>2020-11-14T11:20:57.623Z</time>
      </trkpt>
      <trkpt lat="46.86941" lon="6.70115">
        <ele>1163.82</ele>
        <time>2020-11-14T11:21:01.274Z</time>
      </trkpt>
      <trkpt lat="46.86944" lon="6.70135">
        <ele>1161.78</ele>
        <time>2020-11-14T11:21:04.254Z</time>
      </trkpt>
      <trkpt lat="46.86952" lon="6.70183">
        <ele>1156.45</ele>
        <time>2020-11-14T11:21:11.443Z</time>
      </trkpt>
      <trkpt lat="46.86957" lon="6.70219">
        <ele>1152.95</ele>
        <time>2020-11-14T11:21:16.789Z</time>
      </trkpt>
      <trkpt lat="46.86959" lon="6.70246">
        <ele>1150.02</ele>
        <time>2020-11-14T11:21:20.740Z</time>
      </trkpt>
      <trkpt lat="46.86962" lon="6.70269">
        <ele>1147.52</ele>
        <time>2020-11-14T11:21:24.148Z</time>
      </trkpt>
      <trkpt lat="46.86964" lon="6.70289">
        <ele>1144.91</ele>
        <time>2020-11-14T11:21:27.089Z</time>
      </trkpt>
      <trkpt lat="46.86966" lon="6.70305">
        <ele>1143.5</ele>
        <time>2020-11-14T11:21:29.456Z</time>
      </trkpt>
      <trkpt lat="46.86966" lon="6.70317">
        <ele>1142.11</ele>
        <time>2020-11-14T11:21:31.202Z</time>
      </trkpt>
      <trkpt lat="46.86965" lon="6.70344">
        <ele>1139.51</ele>
        <time>2020-11-14T11:21:35.137Z</time>
      </trkpt>
      <trkpt lat="46.86965" lon="6.70358">
        <ele>1138.1</ele>
        <time>2020-11-14T11:21:37.174Z</time>
      </trkpt>
      <trkpt lat="46.86964" lon="6.70408">
        <ele>1131.15</ele>
        <time>2020-11-14T11:21:44.453Z</time>
      </trkpt>
      <trkpt lat="46.86966" lon="6.7044">
        <ele>1129.2</ele>
        <time>2020-11-14T11:21:49.129Z</time>
      </trkpt>
      <trkpt lat="46.86967" lon="6.70462">
        <ele>1127.13</ele>
        <time>2020-11-14T11:21:52.337Z</time>
      </trkpt>
      <trkpt lat="46.86967" lon="6.70472">
        <ele>1126.2</ele>
        <time>2020-11-14T11:21:53.792Z</time>
      </trkpt>
      <trkpt lat="46.86969" lon="6.70483">
        <ele>1124.93</ele>
        <time>2020-11-14T11:21:55.449Z</time>
      </trkpt>
      <trkpt lat="46.8697" lon="6.70492">
        <ele>1123.82</ele>
        <time>2020-11-14T11:21:56.776Z</time>
      </trkpt>
      <trkpt lat="46.86973" lon="6.70498">
        <ele>1123.15</ele>
        <time>2020-11-14T11:21:57.857Z</time>
      </trkpt>
      <trkpt lat="46.86976" lon="6.70503">
        <ele>1122.57</ele>
        <time>2020-11-14T11:21:58.825Z</time>
      </trkpt>
      <trkpt lat="46.86983" lon="6.70511">
        <ele>1121.55</ele>
        <time>2020-11-14T11:22:00.716Z</time>
      </trkpt>
      <trkpt lat="46.86992" lon="6.70519">
        <ele>1120.83</ele>
        <time>2020-11-14T11:22:02.958Z</time>
      </trkpt>
      <trkpt lat="46.86995" lon="6.70522">
        <ele>1120.61</ele>
        <time>2020-11-14T11:22:03.701Z</time>
      </trkpt>
      <trkpt lat="46.87004" lon="6.70533">
        <ele>1120.24</ele>
        <time>2020-11-14T11:22:06.817Z</time>
      </trkpt>
      <trkpt lat="46.87004" lon="6.70532">
        <ele>1120.24</ele>
        <time>2020-11-14T11:22:07.445Z</time>
      </trkpt>
      <trkpt lat="46.87008" lon="6.70536">
        <ele>1119.87</ele>
        <time>2020-11-14T11:22:08.476Z</time>
      </trkpt>
      <trkpt lat="46.87025" lon="6.70552">
        <ele>1119.54</ele>
        <time>2020-11-14T11:22:14.850Z</time>
      </trkpt>
      <trkpt lat="46.87037" lon="6.70562">
        <ele>1118.71</ele>
        <time>2020-11-14T11:22:17.684Z</time>
      </trkpt>
      <trkpt lat="46.87045" lon="6.70567">
        <ele>1118.47</ele>
        <time>2020-11-14T11:22:20.095Z</time>
      </trkpt>
      <trkpt lat="46.87053" lon="6.70572">
        <ele>1118.09</ele>
        <time>2020-11-14T11:22:22.149Z</time>
      </trkpt>
      <trkpt lat="46.87059" lon="6.70575">
        <ele>1117.83</ele>
        <time>2020-11-14T11:22:23.684Z</time>
      </trkpt>
      <trkpt lat="46.87064" lon="6.7058">
        <ele>1117.58</ele>
        <time>2020-11-14T11:22:25.146Z</time>
      </trkpt>
      <trkpt lat="46.87071" lon="6.70587">
        <ele>1117.36</ele>
        <time>2020-11-14T11:22:27.538Z</time>
      </trkpt>
      <trkpt lat="46.87078" lon="6.70596">
        <ele>1117.25</ele>
        <time>2020-11-14T11:22:30.649Z</time>
      </trkpt>
      <trkpt lat="46.87084" lon="6.70603">
        <ele>1116.89</ele>
        <time>2020-11-14T11:22:32.409Z</time>
      </trkpt>
      <trkpt lat="46.87092" lon="6.7061">
        <ele>1116.65</ele>
        <time>2020-11-14T11:22:35.044Z</time>
      </trkpt>
      <trkpt lat="46.87098" lon="6.70613">
        <ele>1116.28</ele>
        <time>2020-11-14T11:22:36.364Z</time>
      </trkpt>
      <trkpt lat="46.87103" lon="6.70616">
        <ele>1116.07</ele>
        <time>2020-11-14T11:22:37.699Z</time>
      </trkpt>
      <trkpt lat="46.87113" lon="6.7062">
        <ele>1115.12</ele>
        <time>2020-11-14T11:22:39.905Z</time>
      </trkpt>
      <trkpt lat="46.87119" lon="6.70623">
        <ele>1114.61</ele>
        <time>2020-11-14T11:22:41.255Z</time>
      </trkpt>
      <trkpt lat="46.87125" lon="6.70629">
        <ele>1114.38</ele>
        <time>2020-11-14T11:22:43.184Z</time>
      </trkpt>
      <trkpt lat="46.8713" lon="6.70635">
        <ele>1114.13</ele>
        <time>2020-11-14T11:22:44.785Z</time>
      </trkpt>
      <trkpt lat="46.87134" lon="6.70644">
        <ele>1113.55</ele>
        <time>2020-11-14T11:22:46.347Z</time>
      </trkpt>
      <trkpt lat="46.8714" lon="6.70655">
        <ele>1113</ele>
        <time>2020-11-14T11:22:48.369Z</time>
      </trkpt>
      <trkpt lat="46.87146" lon="6.70666">
        <ele>1112.64</ele>
        <time>2020-11-14T11:22:50.779Z</time>
      </trkpt>
      <trkpt lat="46.8715" lon="6.70671">
        <ele>1112.41</ele>
        <time>2020-11-14T11:22:52.021Z</time>
      </trkpt>
      <trkpt lat="46.87154" lon="6.70676">
        <ele>1112.12</ele>
        <time>2020-11-14T11:22:53.145Z</time>
      </trkpt>
      <trkpt lat="46.87168" lon="6.70689">
        <ele>1111.45</ele>
        <time>2020-11-14T11:22:57.182Z</time>
      </trkpt>
      <trkpt lat="46.87176" lon="6.70695">
        <ele>1111.37</ele>
        <time>2020-11-14T11:23:00.301Z</time>
      </trkpt>
      <trkpt lat="46.87183" lon="6.70698">
        <ele>1111.06</ele>
        <time>2020-11-14T11:23:02.042Z</time>
      </trkpt>
      <trkpt lat="46.87194" lon="6.70702">
        <ele>1110.65</ele>
        <time>2020-11-14T11:23:04.917Z</time>
      </trkpt>
      <trkpt lat="46.87203" lon="6.70706">
        <ele>1110.48</ele>
        <time>2020-11-14T11:23:07.820Z</time>
      </trkpt>
      <trkpt lat="46.87217" lon="6.70715">
        <ele>1110.31</ele>
        <time>2020-11-14T11:23:12.971Z</time>
      </trkpt>
      <trkpt lat="46.87229" lon="6.70724">
        <ele>1109.71</ele>
        <time>2020-11-14T11:23:16.131Z</time>
      </trkpt>
      <trkpt lat="46.87243" lon="6.70735">
        <ele>1108.66</ele>
        <time>2020-11-14T11:23:19.244Z</time>
      </trkpt>
      <trkpt lat="46.87256" lon="6.70748">
        <ele>1107.82</ele>
        <time>2020-11-14T11:23:22.660Z</time>
      </trkpt>
      <trkpt lat="46.87267" lon="6.7076">
        <ele>1107.37</ele>
        <time>2020-11-14T11:23:26.260Z</time>
      </trkpt>
      <trkpt lat="46.87277" lon="6.70771">
        <ele>1106.69</ele>
        <time>2020-11-14T11:23:28.951Z</time>
      </trkpt>
      <trkpt lat="46.873" lon="6.70794">
        <ele>1105.58</ele>
        <time>2020-11-14T11:23:35.770Z</time>
      </trkpt>
      <trkpt lat="46.87308" lon="6.70802">
        <ele>1105.26</ele>
        <time>2020-11-14T11:23:38.306Z</time>
      </trkpt>
      <trkpt lat="46.87315" lon="6.70808">
        <ele>1104.89</ele>
        <time>2020-11-14T11:23:40.189Z</time>
      </trkpt>
      <trkpt lat="46.8733" lon="6.7082">
        <ele>1104.17</ele>
        <time>2020-11-14T11:23:44.285Z</time>
      </trkpt>
      <trkpt lat="46.87338" lon="6.70825">
        <ele>1103.77</ele>
        <time>2020-11-14T11:23:46.296Z</time>
      </trkpt>
      <trkpt lat="46.87349" lon="6.70831">
        <ele>1103.38</ele>
        <time>2020-11-14T11:23:49.363Z</time>
      </trkpt>
      <trkpt lat="46.87379" lon="6.70847">
        <ele>1102.06</ele>
        <time>2020-11-14T11:23:57.069Z</time>
      </trkpt>
      <trkpt lat="46.8739" lon="6.70854">
        <ele>1101.09</ele>
        <time>2020-11-14T11:23:59.622Z</time>
      </trkpt>
      <trkpt lat="46.874" lon="6.70862">
        <ele>1100.43</ele>
        <time>2020-11-14T11:24:02.003Z</time>
      </trkpt>
      <trkpt lat="46.87405" lon="6.70868">
        <ele>1099.8</ele>
        <time>2020-11-14T11:24:03.379Z</time>
      </trkpt>
      <trkpt lat="46.8741" lon="6.70874">
        <ele>1099.36</ele>
        <time>2020-11-14T11:24:04.756Z</time>
      </trkpt>
      <trkpt lat="46.87416" lon="6.70882">
        <ele>1098.8</ele>
        <time>2020-11-14T11:24:06.484Z</time>
      </trkpt>
      <trkpt lat="46.87422" lon="6.70889">
        <ele>1098.21</ele>
        <time>2020-11-14T11:24:08.117Z</time>
      </trkpt>
      <trkpt lat="46.87427" lon="6.70895">
        <ele>1097.81</ele>
        <time>2020-11-14T11:24:09.426Z</time>
      </trkpt>
      <trkpt lat="46.87433" lon="6.709">
        <ele>1097.37</ele>
        <time>2020-11-14T11:24:10.803Z</time>
      </trkpt>
      <trkpt lat="46.87451" lon="6.70913">
        <ele>1096.66</ele>
        <time>2020-11-14T11:24:15.935Z</time>
      </trkpt>
      <trkpt lat="46.87451" lon="6.70912">
        <ele>1096.66</ele>
        <time>2020-11-14T11:24:16.562Z</time>
      </trkpt>
      <trkpt lat="46.8746" lon="6.70919">
        <ele>1095.95</ele>
        <time>2020-11-14T11:24:18.732Z</time>
      </trkpt>
      <trkpt lat="46.87471" lon="6.70925">
        <ele>1095.44</ele>
        <time>2020-11-14T11:24:21.510Z</time>
      </trkpt>
      <trkpt lat="46.87478" lon="6.70928">
        <ele>1095.14</ele>
        <time>2020-11-14T11:24:23.274Z</time>
      </trkpt>
      <trkpt lat="46.87483" lon="6.7093">
        <ele>1094.79</ele>
        <time>2020-11-14T11:24:24.377Z</time>
      </trkpt>
      <trkpt lat="46.87488" lon="6.7093">
        <ele>1094.5</ele>
        <time>2020-11-14T11:24:25.421Z</time>
      </trkpt>
      <trkpt lat="46.87493" lon="6.70929">
        <ele>1094.32</ele>
        <time>2020-11-14T11:24:26.707Z</time>
      </trkpt>
      <trkpt lat="46.87502" lon="6.70926">
        <ele>1093.95</ele>
        <time>2020-11-14T11:24:28.961Z</time>
      </trkpt>
      <trkpt lat="46.87512" lon="6.70924">
        <ele>1093.57</ele>
        <time>2020-11-14T11:24:31.484Z</time>
      </trkpt>
      <trkpt lat="46.87519" lon="6.70923">
        <ele>1093.27</ele>
        <time>2020-11-14T11:24:33.161Z</time>
      </trkpt>
      <trkpt lat="46.87524" lon="6.70923">
        <ele>1093.03</ele>
        <time>2020-11-14T11:24:34.296Z</time>
      </trkpt>
      <trkpt lat="46.87531" lon="6.70926">
        <ele>1092.47</ele>
        <time>2020-11-14T11:24:35.849Z</time>
      </trkpt>
      <trkpt lat="46.87552" lon="6.70935">
        <ele>1091.78</ele>
        <time>2020-11-14T11:24:41.664Z</time>
      </trkpt>
      <trkpt lat="46.87568" lon="6.70942">
        <ele>1090.68</ele>
        <time>2020-11-14T11:24:44.941Z</time>
      </trkpt>
      <trkpt lat="46.87577" lon="6.70945">
        <ele>1090</ele>
        <time>2020-11-14T11:24:46.905Z</time>
      </trkpt>
      <trkpt lat="46.87584" lon="6.70944">
        <ele>1089.98</ele>
        <time>2020-11-14T11:24:53.094Z</time>
      </trkpt>
      <trkpt lat="46.87589" lon="6.70953">
        <ele>1088.91</ele>
        <time>2020-11-14T11:24:54.781Z</time>
      </trkpt>
      <trkpt lat="46.87595" lon="6.70965">
        <ele>1087.61</ele>
        <time>2020-11-14T11:24:56.945Z</time>
      </trkpt>
      <trkpt lat="46.87609" lon="6.70984">
        <ele>1084.98</ele>
        <time>2020-11-14T11:25:01.009Z</time>
      </trkpt>
      <trkpt lat="46.87619" lon="6.71005">
        <ele>1082.43</ele>
        <time>2020-11-14T11:25:04.733Z</time>
      </trkpt>
      <trkpt lat="46.8763" lon="6.71028">
        <ele>1079.75</ele>
        <time>2020-11-14T11:25:08.817Z</time>
      </trkpt>
      <trkpt lat="46.87633" lon="6.71039">
        <ele>1078.78</ele>
        <time>2020-11-14T11:25:10.541Z</time>
      </trkpt>
      <trkpt lat="46.87636" lon="6.71047">
        <ele>1077.97</ele>
        <time>2020-11-14T11:25:11.868Z</time>
      </trkpt>
      <trkpt lat="46.8764" lon="6.71057">
        <ele>1077.02</ele>
        <time>2020-11-14T11:25:13.554Z</time>
      </trkpt>
      <trkpt lat="46.87644" lon="6.71064">
        <ele>1076.39</ele>
        <time>2020-11-14T11:25:14.881Z</time>
      </trkpt>
      <trkpt lat="46.87648" lon="6.71071">
        <ele>1075.53</ele>
        <time>2020-11-14T11:25:16.209Z</time>
      </trkpt>
      <trkpt lat="46.87655" lon="6.71081">
        <ele>1074.18</ele>
        <time>2020-11-14T11:25:18.291Z</time>
      </trkpt>
      <trkpt lat="46.87656" lon="6.71082">
        <ele>1073.04</ele>
        <time>2020-11-14T11:25:18.549Z</time>
      </trkpt>
      <trkpt lat="46.87656" lon="6.71081">
        <ele>1073.04</ele>
        <time>2020-11-14T11:25:19.177Z</time>
      </trkpt>
      <trkpt lat="46.87667" lon="6.71096">
        <ele>1071.91</ele>
        <time>2020-11-14T11:25:22.378Z</time>
      </trkpt>
      <trkpt lat="46.87675" lon="6.71108">
        <ele>1070.13</ele>
        <time>2020-11-14T11:25:24.817Z</time>
      </trkpt>
      <trkpt lat="46.87679" lon="6.71116">
        <ele>1069.15</ele>
        <time>2020-11-14T11:25:26.259Z</time>
      </trkpt>
      <trkpt lat="46.87684" lon="6.71111">
        <ele>1069.16</ele>
        <time>2020-11-14T11:25:31.905Z</time>
      </trkpt>
      <trkpt lat="46.8769" lon="6.71107">
        <ele>1069.33</ele>
        <time>2020-11-14T11:25:39.832Z</time>
      </trkpt>
      <trkpt lat="46.87694" lon="6.71107">
        <ele>1069.32</ele>
        <time>2020-11-14T11:25:43.370Z</time>
      </trkpt>
      <trkpt lat="46.877" lon="6.71109">
        <ele>1069.6</ele>
        <time>2020-11-14T11:25:52.967Z</time>
      </trkpt>
      <trkpt lat="46.87711" lon="6.71113">
        <ele>1069.75</ele>
        <time>2020-11-14T11:26:04.811Z</time>
      </trkpt>
      <trkpt lat="46.87722" lon="6.71117">
        <ele>1070.08</ele>
        <time>2020-11-14T11:26:19.004Z</time>
      </trkpt>
      <trkpt lat="46.87733" lon="6.7112">
        <ele>1070.28</ele>
        <time>2020-11-14T11:26:31.291Z</time>
      </trkpt>
      <trkpt lat="46.87743" lon="6.7112">
        <ele>1070.54</ele>
        <time>2020-11-14T11:26:43.344Z</time>
      </trkpt>
      <trkpt lat="46.87751" lon="6.71119">
        <ele>1071.11</ele>
        <time>2020-11-14T11:26:58.291Z</time>
      </trkpt>
      <trkpt lat="46.87782" lon="6.71111">
        <ele>1072.6</ele>
        <time>2020-11-14T11:27:47.966Z</time>
      </trkpt>
      <trkpt lat="46.87793" lon="6.7111">
        <ele>1072.64</ele>
        <time>2020-11-14T11:27:58.435Z</time>
      </trkpt>
      <trkpt lat="46.87803" lon="6.7111">
        <ele>1073.27</ele>
        <time>2020-11-14T11:28:15.986Z</time>
      </trkpt>
      <trkpt lat="46.87839" lon="6.71114">
        <ele>1074.83</ele>
        <time>2020-11-14T11:29:10.854Z</time>
      </trkpt>
      <trkpt lat="46.87859" lon="6.71116">
        <ele>1075.88</ele>
        <time>2020-11-14T11:29:43.551Z</time>
      </trkpt>
      <trkpt lat="46.87872" lon="6.71116">
        <ele>1076.34</ele>
        <time>2020-11-14T11:30:01.213Z</time>
      </trkpt>
      <trkpt lat="46.87884" lon="6.71114">
        <ele>1076.8</ele>
        <time>2020-11-14T11:30:18.245Z</time>
      </trkpt>
      <trkpt lat="46.87895" lon="6.71109">
        <ele>1077.13</ele>
        <time>2020-11-14T11:30:32.585Z</time>
      </trkpt>
      <trkpt lat="46.8791" lon="6.711">
        <ele>1078.05</ele>
        <time>2020-11-14T11:30:59.820Z</time>
      </trkpt>
      <trkpt lat="46.87921" lon="6.71091">
        <ele>1078.08</ele>
        <time>2020-11-14T11:31:11.651Z</time>
      </trkpt>
      <trkpt lat="46.87938" lon="6.71081">
        <ele>1079.06</ele>
        <time>2020-11-14T11:31:41.758Z</time>
      </trkpt>
      <trkpt lat="46.8794" lon="6.71079">
        <ele>1079.14</ele>
        <time>2020-11-14T11:31:44.947Z</time>
      </trkpt>
      <trkpt lat="46.8794" lon="6.71079">
        <ele>1079.14</ele>
        <time>2020-11-14T11:31:44.947Z</time>
      </trkpt>
      <trkpt lat="46.87944" lon="6.71075">
        <ele>1079.22</ele>
        <time>2020-11-14T11:31:50.189Z</time>
      </trkpt>
      <trkpt lat="46.87958" lon="6.71057">
        <ele>1080.15</ele>
        <time>2020-11-14T11:32:20.095Z</time>
      </trkpt>
      <trkpt lat="46.87964" lon="6.71046">
        <ele>1080.84</ele>
        <time>2020-11-14T11:32:38.104Z</time>
      </trkpt>
      <trkpt lat="46.87967" lon="6.71035">
        <ele>1081.27</ele>
        <time>2020-11-14T11:32:51.373Z</time>
      </trkpt>
      <trkpt lat="46.87972" lon="6.71023">
        <ele>1081.47</ele>
        <time>2020-11-14T11:33:02.273Z</time>
      </trkpt>
      <trkpt lat="46.87977" lon="6.71013">
        <ele>1081.84</ele>
        <time>2020-11-14T11:33:15.238Z</time>
      </trkpt>
      <trkpt lat="46.87992" lon="6.70989">
        <ele>1082.92</ele>
        <time>2020-11-14T11:33:50.601Z</time>
      </trkpt>
      <trkpt lat="46.88003" lon="6.70974">
        <ele>1083.6</ele>
        <time>2020-11-14T11:34:14.012Z</time>
      </trkpt>
      <trkpt lat="46.8801" lon="6.70963">
        <ele>1083.75</ele>
        <time>2020-11-14T11:34:24.902Z</time>
      </trkpt>
      <trkpt lat="46.8802" lon="6.70944">
        <ele>1084.27</ele>
        <time>2020-11-14T11:34:46.118Z</time>
      </trkpt>
      <trkpt lat="46.88029" lon="6.70924">
        <ele>1085.19</ele>
        <time>2020-11-14T11:35:13.512Z</time>
      </trkpt>
      <trkpt lat="46.88044" lon="6.70888">
        <ele>1086.63</ele>
        <time>2020-11-14T11:35:59.774Z</time>
      </trkpt>
      <trkpt lat="46.88057" lon="6.70851">
        <ele>1088</ele>
        <time>2020-11-14T11:36:44.893Z</time>
      </trkpt>
      <trkpt lat="46.88067" lon="6.70829">
        <ele>1088.51</ele>
        <time>2020-11-14T11:37:07.262Z</time>
      </trkpt>
      <trkpt lat="46.88097" lon="6.70769">
        <ele>1090.55</ele>
        <time>2020-11-14T11:38:21.059Z</time>
      </trkpt>
      <trkpt lat="46.8811" lon="6.70746">
        <ele>1091.56</ele>
        <time>2020-11-14T11:38:53.708Z</time>
      </trkpt>
      <trkpt lat="46.8811" lon="6.70746">
        <ele>1091.56</ele>
        <time>2020-11-14T11:38:53.708Z</time>
      </trkpt>
      <trkpt lat="46.88123" lon="6.70721">
        <ele>1092.57</ele>
        <time>2020-11-14T11:39:27.526Z</time>
      </trkpt>
      <trkpt lat="46.88165" lon="6.70636">
        <ele>1097.34</ele>
        <time>2020-11-14T11:41:36.620Z</time>
      </trkpt>
      <trkpt lat="46.88177" lon="6.70612">
        <ele>1098.93</ele>
        <time>2020-11-14T11:42:16.660Z</time>
      </trkpt>
      <trkpt lat="46.88183" lon="6.70601">
        <ele>1099.98</ele>
        <time>2020-11-14T11:42:41.880Z</time>
      </trkpt>
      <trkpt lat="46.88189" lon="6.70586">
        <ele>1101.01</ele>
        <time>2020-11-14T11:43:06.994Z</time>
      </trkpt>
      <trkpt lat="46.88196" lon="6.70568">
        <ele>1101.93</ele>
        <time>2020-11-14T11:43:32.198Z</time>
      </trkpt>
      <trkpt lat="46.88202" lon="6.70551">
        <ele>1102.96</ele>
        <time>2020-11-14T11:43:58.071Z</time>
      </trkpt>
      <trkpt lat="46.88206" lon="6.70535">
        <ele>1103.83</ele>
        <time>2020-11-14T11:44:20.380Z</time>
      </trkpt>
      <trkpt lat="46.88212" lon="6.70507">
        <ele>1105.44</ele>
        <time>2020-11-14T11:45:00.551Z</time>
      </trkpt>
      <trkpt lat="46.88214" lon="6.70488">
        <ele>1106.75</ele>
        <time>2020-11-14T11:45:31.836Z</time>
      </trkpt>
      <trkpt lat="46.88217" lon="6.70448">
        <ele>1108.8</ele>
        <time>2020-11-14T11:46:24.456Z</time>
      </trkpt>
      <trkpt lat="46.88217" lon="6.70385">
        <ele>1112.03</ele>
        <time>2020-11-14T11:47:47.145Z</time>
      </trkpt>
      <trkpt lat="46.88217" lon="6.70336">
        <ele>1114.53</ele>
        <time>2020-11-14T11:48:51.276Z</time>
      </trkpt>
      <trkpt lat="46.88216" lon="6.70304">
        <ele>1116.4</ele>
        <time>2020-11-14T11:49:37.050Z</time>
      </trkpt>
      <trkpt lat="46.88212" lon="6.7026">
        <ele>1117.1</ele>
        <time>2020-11-14T11:50:12.375Z</time>
      </trkpt>
      <trkpt lat="46.88213" lon="6.70244">
        <ele>1116.17</ele>
        <time>2020-11-14T11:50:14.712Z</time>
      </trkpt>
      <trkpt lat="46.88215" lon="6.70229">
        <ele>1115.58</ele>
        <time>2020-11-14T11:50:16.919Z</time>
      </trkpt>
      <trkpt lat="46.88218" lon="6.70185">
        <ele>1113.39</ele>
        <time>2020-11-14T11:50:23.352Z</time>
      </trkpt>
      <trkpt lat="46.8822" lon="6.7015">
        <ele>1111.8</ele>
        <time>2020-11-14T11:50:28.048Z</time>
      </trkpt>
      <trkpt lat="46.88223" lon="6.70134">
        <ele>1111.09</ele>
        <time>2020-11-14T11:50:30.330Z</time>
      </trkpt>
      <trkpt lat="46.88227" lon="6.70113">
        <ele>1110.35</ele>
        <time>2020-11-14T11:50:33.665Z</time>
      </trkpt>
      <trkpt lat="46.8823" lon="6.70098">
        <ele>1109.58</ele>
        <time>2020-11-14T11:50:35.939Z</time>
      </trkpt>
      <trkpt lat="46.88234" lon="6.70069">
        <ele>1108.15</ele>
        <time>2020-11-14T11:50:40.243Z</time>
      </trkpt>
      <trkpt lat="46.88235" lon="6.70058">
        <ele>1107.76</ele>
        <time>2020-11-14T11:50:41.915Z</time>
      </trkpt>
      <trkpt lat="46.88235" lon="6.70045">
        <ele>1107.12</ele>
        <time>2020-11-14T11:50:43.806Z</time>
      </trkpt>
      <trkpt lat="46.88234" lon="6.70022">
        <ele>1106.09</ele>
        <time>2020-11-14T11:50:46.908Z</time>
      </trkpt>
      <trkpt lat="46.88232" lon="6.69994">
        <ele>1104.77</ele>
        <time>2020-11-14T11:50:51.004Z</time>
      </trkpt>
      <trkpt lat="46.88232" lon="6.69975">
        <ele>1103.8</ele>
        <time>2020-11-14T11:50:53.768Z</time>
      </trkpt>
      <trkpt lat="46.88231" lon="6.69924">
        <ele>1101.96</ele>
        <time>2020-11-14T11:51:01.369Z</time>
      </trkpt>
      <trkpt lat="46.88231" lon="6.6991">
        <ele>1101.19</ele>
        <time>2020-11-14T11:51:03.405Z</time>
      </trkpt>
      <trkpt lat="46.88231" lon="6.69894">
        <ele>1100.63</ele>
        <time>2020-11-14T11:51:05.821Z</time>
      </trkpt>
      <trkpt lat="46.88229" lon="6.69866">
        <ele>1099.46</ele>
        <time>2020-11-14T11:51:09.747Z</time>
      </trkpt>
      <trkpt lat="46.88228" lon="6.69846">
        <ele>1098.6</ele>
        <time>2020-11-14T11:51:12.502Z</time>
      </trkpt>
      <trkpt lat="46.88227" lon="6.69812">
        <ele>1097.25</ele>
        <time>2020-11-14T11:51:17.355Z</time>
      </trkpt>
      <trkpt lat="46.88227" lon="6.69811">
        <ele>1097.25</ele>
        <time>2020-11-14T11:51:17.982Z</time>
      </trkpt>
      <trkpt lat="46.88227" lon="6.69784">
        <ele>1095.89</ele>
        <time>2020-11-14T11:51:21.911Z</time>
      </trkpt>
      <trkpt lat="46.88226" lon="6.69746">
        <ele>1094.55</ele>
        <time>2020-11-14T11:51:27.634Z</time>
      </trkpt>
      <trkpt lat="46.88227" lon="6.69729">
        <ele>1093.9</ele>
        <time>2020-11-14T11:51:30.114Z</time>
      </trkpt>
      <trkpt lat="46.88229" lon="6.69717">
        <ele>1093.23</ele>
        <time>2020-11-14T11:51:31.911Z</time>
      </trkpt>
      <trkpt lat="46.88232" lon="6.69715">
        <ele>1092.82</ele>
        <time>2020-11-14T11:51:32.613Z</time>
      </trkpt>
      <trkpt lat="46.88233" lon="6.69712">
        <ele>1092.62</ele>
        <time>2020-11-14T11:51:33.098Z</time>
      </trkpt>
      <trkpt lat="46.88234" lon="6.69707">
        <ele>1092.35</ele>
        <time>2020-11-14T11:51:33.856Z</time>
      </trkpt>
      <trkpt lat="46.88233" lon="6.69696">
        <ele>1092.32</ele>
        <time>2020-11-14T11:51:40.423Z</time>
      </trkpt>
      <trkpt lat="46.88231" lon="6.69681">
        <ele>1092</ele>
        <time>2020-11-14T11:51:43.225Z</time>
      </trkpt>
      <trkpt lat="46.88229" lon="6.69668">
        <ele>1091.92</ele>
        <time>2020-11-14T11:51:46.389Z</time>
      </trkpt>
      <trkpt lat="46.88229" lon="6.69659">
        <ele>1091.55</ele>
        <time>2020-11-14T11:51:47.651Z</time>
      </trkpt>
      <trkpt lat="46.8823" lon="6.6965">
        <ele>1091.62</ele>
        <time>2020-11-14T11:51:54.030Z</time>
      </trkpt>
      <trkpt lat="46.88234" lon="6.69629">
        <ele>1091.13</ele>
        <time>2020-11-14T11:51:57.935Z</time>
      </trkpt>
      <trkpt lat="46.88238" lon="6.69607">
        <ele>1089.99</ele>
        <time>2020-11-14T11:52:01.247Z</time>
      </trkpt>
      <trkpt lat="46.88241" lon="6.69589">
        <ele>1088.23</ele>
        <time>2020-11-14T11:52:03.943Z</time>
      </trkpt>
      <trkpt lat="46.88243" lon="6.69563">
        <ele>1087.1</ele>
        <time>2020-11-14T11:52:07.524Z</time>
      </trkpt>
      <trkpt lat="46.88245" lon="6.69541">
        <ele>1086.3</ele>
        <time>2020-11-14T11:52:10.831Z</time>
      </trkpt>
      <trkpt lat="46.88245" lon="6.69522">
        <ele>1085.43</ele>
        <time>2020-11-14T11:52:13.595Z</time>
      </trkpt>
      <trkpt lat="46.88244" lon="6.69508">
        <ele>1084.69</ele>
        <time>2020-11-14T11:52:15.643Z</time>
      </trkpt>
      <trkpt lat="46.8824" lon="6.69491">
        <ele>1083.56</ele>
        <time>2020-11-14T11:52:18.259Z</time>
      </trkpt>
      <trkpt lat="46.88239" lon="6.69477">
        <ele>1083.07</ele>
        <time>2020-11-14T11:52:20.389Z</time>
      </trkpt>
      <trkpt lat="46.88239" lon="6.69476">
        <ele>1083.07</ele>
        <time>2020-11-14T11:52:21.016Z</time>
      </trkpt>
      <trkpt lat="46.88238" lon="6.69475">
        <ele>1082.57</ele>
        <time>2020-11-14T11:52:21.274Z</time>
      </trkpt>
      <trkpt lat="46.88238" lon="6.69462">
        <ele>1081.59</ele>
        <time>2020-11-14T11:52:23.166Z</time>
      </trkpt>
      <trkpt lat="46.88238" lon="6.6945">
        <ele>1080.84</ele>
        <time>2020-11-14T11:52:24.911Z</time>
      </trkpt>
      <trkpt lat="46.8824" lon="6.69435">
        <ele>1079.83</ele>
        <time>2020-11-14T11:52:27.135Z</time>
      </trkpt>
      <trkpt lat="46.88243" lon="6.69419">
        <ele>1078.7</ele>
        <time>2020-11-14T11:52:29.548Z</time>
      </trkpt>
      <trkpt lat="46.88247" lon="6.6936">
        <ele>1074.99</ele>
        <time>2020-11-14T11:52:38.174Z</time>
      </trkpt>
      <trkpt lat="46.88252" lon="6.69313">
        <ele>1072.07</ele>
        <time>2020-11-14T11:52:45.094Z</time>
      </trkpt>
      <trkpt lat="46.88255" lon="6.69273">
        <ele>1070.06</ele>
        <time>2020-11-14T11:52:50.948Z</time>
      </trkpt>
      <trkpt lat="46.88257" lon="6.6925">
        <ele>1068.93</ele>
        <time>2020-11-14T11:52:54.321Z</time>
      </trkpt>
      <trkpt lat="46.88269" lon="6.69148">
        <ele>1065.16</ele>
        <time>2020-11-14T11:53:09.671Z</time>
      </trkpt>
      <trkpt lat="46.88273" lon="6.69111">
        <ele>1063.93</ele>
        <time>2020-11-14T11:53:15.484Z</time>
      </trkpt>
      <trkpt lat="46.88278" lon="6.69072">
        <ele>1062.56</ele>
        <time>2020-11-14T11:53:21.510Z</time>
      </trkpt>
      <trkpt lat="46.88285" lon="6.69006">
        <ele>1060.35</ele>
        <time>2020-11-14T11:53:31.841Z</time>
      </trkpt>
      <trkpt lat="46.88286" lon="6.68994">
        <ele>1060.02</ele>
        <time>2020-11-14T11:53:33.862Z</time>
      </trkpt>
      <trkpt lat="46.88286" lon="6.68983">
        <ele>1059.65</ele>
        <time>2020-11-14T11:53:35.551Z</time>
      </trkpt>
      <trkpt lat="46.88285" lon="6.68972">
        <ele>1059.28</ele>
        <time>2020-11-14T11:53:37.262Z</time>
      </trkpt>
      <trkpt lat="46.88282" lon="6.68955">
        <ele>1058.65</ele>
        <time>2020-11-14T11:53:39.884Z</time>
      </trkpt>
      <trkpt lat="46.88282" lon="6.68951">
        <ele>1058.27</ele>
        <time>2020-11-14T11:53:40.466Z</time>
      </trkpt>
      <trkpt lat="46.88282" lon="6.6895">
        <ele>1058.27</ele>
        <time>2020-11-14T11:53:41.093Z</time>
      </trkpt>
      <trkpt lat="46.88281" lon="6.68941">
        <ele>1057.9</ele>
        <time>2020-11-14T11:53:42.380Z</time>
      </trkpt>
      <trkpt lat="46.8828" lon="6.68924">
        <ele>1057.34</ele>
        <time>2020-11-14T11:53:45.028Z</time>
      </trkpt>
      <trkpt lat="46.8829" lon="6.68846">
        <ele>1054.74</ele>
        <time>2020-11-14T11:53:57.355Z</time>
      </trkpt>
      <trkpt lat="46.88294" lon="6.68804">
        <ele>1053.39</ele>
        <time>2020-11-14T11:54:04.022Z</time>
      </trkpt>
      <trkpt lat="46.88296" lon="6.6879">
        <ele>1053.29</ele>
        <time>2020-11-14T11:54:07.353Z</time>
      </trkpt>
      <trkpt lat="46.88297" lon="6.68766">
        <ele>1053.18</ele>
        <time>2020-11-14T11:54:21.040Z</time>
      </trkpt>
      <trkpt lat="46.88299" lon="6.68756">
        <ele>1053.2</ele>
        <time>2020-11-14T11:54:27.752Z</time>
      </trkpt>
      <trkpt lat="46.883" lon="6.68752">
        <ele>1053.18</ele>
        <time>2020-11-14T11:54:30.171Z</time>
      </trkpt>
      <trkpt lat="46.88301" lon="6.68747">
        <ele>1053.22</ele>
        <time>2020-11-14T11:54:33.815Z</time>
      </trkpt>
      <trkpt lat="46.88303" lon="6.68741">
        <ele>1053.28</ele>
        <time>2020-11-14T11:54:38.579Z</time>
      </trkpt>
      <trkpt lat="46.88306" lon="6.68737">
        <ele>1053.36</ele>
        <time>2020-11-14T11:54:43.127Z</time>
      </trkpt>
      <trkpt lat="46.88309" lon="6.68734">
        <ele>1053.49</ele>
        <time>2020-11-14T11:54:48.090Z</time>
      </trkpt>
      <trkpt lat="46.88314" lon="6.68733">
        <ele>1053.44</ele>
        <time>2020-11-14T11:54:49.817Z</time>
      </trkpt>
      <trkpt lat="46.88318" lon="6.68734">
        <ele>1053.56</ele>
        <time>2020-11-14T11:54:54.928Z</time>
      </trkpt>
      <trkpt lat="46.88323" lon="6.68736">
        <ele>1053.54</ele>
        <time>2020-11-14T11:54:59.422Z</time>
      </trkpt>
      <trkpt lat="46.88327" lon="6.68741">
        <ele>1053.67</ele>
        <time>2020-11-14T11:55:05.666Z</time>
      </trkpt>
      <trkpt lat="46.88348" lon="6.68771">
        <ele>1054.09</ele>
        <time>2020-11-14T11:55:36.682Z</time>
      </trkpt>
      <trkpt lat="46.88348" lon="6.6877">
        <ele>1054.09</ele>
        <time>2020-11-14T11:55:37.310Z</time>
      </trkpt>
      <trkpt lat="46.88357" lon="6.68784">
        <ele>1054.52</ele>
        <time>2020-11-14T11:55:54.538Z</time>
      </trkpt>
      <trkpt lat="46.88365" lon="6.68794">
        <ele>1054.63</ele>
        <time>2020-11-14T11:56:05.223Z</time>
      </trkpt>
      <trkpt lat="46.88372" lon="6.68801">
        <ele>1054.84</ele>
        <time>2020-11-14T11:56:15.294Z</time>
      </trkpt>
      <trkpt lat="46.88377" lon="6.68805">
        <ele>1054.8</ele>
        <time>2020-11-14T11:56:20.018Z</time>
      </trkpt>
      <trkpt lat="46.88384" lon="6.68807">
        <ele>1054.85</ele>
        <time>2020-11-14T11:56:27.017Z</time>
      </trkpt>
      <trkpt lat="46.8839" lon="6.68806">
        <ele>1054.79</ele>
        <time>2020-11-14T11:56:29.083Z</time>
      </trkpt>
      <trkpt lat="46.88396" lon="6.68803">
        <ele>1054.78</ele>
        <time>2020-11-14T11:56:34.768Z</time>
      </trkpt>
      <trkpt lat="46.88405" lon="6.68797">
        <ele>1054.73</ele>
        <time>2020-11-14T11:56:43.196Z</time>
      </trkpt>
      <trkpt lat="46.88445" lon="6.68762">
        <ele>1053.34</ele>
        <time>2020-11-14T11:56:55.806Z</time>
      </trkpt>
      <trkpt lat="46.88445" lon="6.68763">
        <ele>1053.34</ele>
        <time>2020-11-14T11:56:56.433Z</time>
      </trkpt>
      <trkpt lat="46.8845" lon="6.68759">
        <ele>1051.94</ele>
        <time>2020-11-14T11:56:57.646Z</time>
      </trkpt>
      <trkpt lat="46.88473" lon="6.68739">
        <ele>1050.85</ele>
        <time>2020-11-14T11:57:04.139Z</time>
      </trkpt>
      <trkpt lat="46.88482" lon="6.68732">
        <ele>1051.13</ele>
        <time>2020-11-14T11:57:16.646Z</time>
      </trkpt>
      <trkpt lat="46.88491" lon="6.68744">
        <ele>1050.44</ele>
        <time>2020-11-14T11:57:19.215Z</time>
      </trkpt>
      <trkpt lat="46.88506" lon="6.68765">
        <ele>1049.83</ele>
        <time>2020-11-14T11:57:24.857Z</time>
      </trkpt>
      <trkpt lat="46.88516" lon="6.68778">
        <ele>1049.74</ele>
        <time>2020-11-14T11:57:35.993Z</time>
      </trkpt>
      <trkpt lat="46.88521" lon="6.68788">
        <ele>1049.69</ele>
        <time>2020-11-14T11:57:43.124Z</time>
      </trkpt>
      <trkpt lat="46.88526" lon="6.688">
        <ele>1049.78</ele>
        <time>2020-11-14T11:57:52.772Z</time>
      </trkpt>
      <trkpt lat="46.88533" lon="6.68815">
        <ele>1050.19</ele>
        <time>2020-11-14T11:58:09.116Z</time>
      </trkpt>
      <trkpt lat="46.88537" lon="6.68825">
        <ele>1050.52</ele>
        <time>2020-11-14T11:58:20.876Z</time>
      </trkpt>
      <trkpt lat="46.88539" lon="6.6883">
        <ele>1050.69</ele>
        <time>2020-11-14T11:58:26.869Z</time>
      </trkpt>
      <trkpt lat="46.88539" lon="6.68832">
        <ele>1051.89</ele>
        <time>2020-11-14T11:58:31.710Z</time>
      </trkpt>
      <trkpt lat="46.88539" lon="6.68831">
        <ele>1051.89</ele>
        <time>2020-11-14T11:58:32.338Z</time>
      </trkpt>
      <trkpt lat="46.88564" lon="6.6889">
        <ele>1053.09</ele>
        <time>2020-11-14T11:59:29.041Z</time>
      </trkpt>
      <trkpt lat="46.88572" lon="6.68908">
        <ele>1053.97</ele>
        <time>2020-11-14T11:59:54.249Z</time>
      </trkpt>
      <trkpt lat="46.88578" lon="6.6892">
        <ele>1054.58</ele>
        <time>2020-11-14T12:00:11.713Z</time>
      </trkpt>
      <trkpt lat="46.88587" lon="6.68937">
        <ele>1055.46</ele>
        <time>2020-11-14T12:00:36.943Z</time>
      </trkpt>
      <trkpt lat="46.886" lon="6.68961">
        <ele>1056.53</ele>
        <time>2020-11-14T12:01:10.798Z</time>
      </trkpt>
      <trkpt lat="46.88629" lon="6.6901">
        <ele>1058.74</ele>
        <time>2020-11-14T12:02:21.874Z</time>
      </trkpt>
      <trkpt lat="46.88642" lon="6.69033">
        <ele>1059.64</ele>
        <time>2020-11-14T12:02:53.309Z</time>
      </trkpt>
      <trkpt lat="46.88657" lon="6.69062">
        <ele>1060.58</ele>
        <time>2020-11-14T12:03:28.230Z</time>
      </trkpt>
      <trkpt lat="46.88672" lon="6.69093">
        <ele>1061.49</ele>
        <time>2020-11-14T12:04:03.342Z</time>
      </trkpt>
      <trkpt lat="46.88683" lon="6.69115">
        <ele>1061.97</ele>
        <time>2020-11-14T12:04:25.733Z</time>
      </trkpt>
      <trkpt lat="46.88694" lon="6.69134">
        <ele>1062.51</ele>
        <time>2020-11-14T12:04:47.763Z</time>
      </trkpt>
      <trkpt lat="46.88703" lon="6.6915">
        <ele>1062.98</ele>
        <time>2020-11-14T12:05:06.447Z</time>
      </trkpt>
      <trkpt lat="46.88707" lon="6.69157">
        <ele>1063.5</ele>
        <time>2020-11-14T12:05:19.264Z</time>
      </trkpt>
      <trkpt lat="46.88715" lon="6.69167">
        <ele>1063.69</ele>
        <time>2020-11-14T12:05:30.840Z</time>
      </trkpt>
      <trkpt lat="46.88716" lon="6.69169">
        <ele>1063.87</ele>
        <time>2020-11-14T12:05:35.148Z</time>
      </trkpt>
      <trkpt lat="46.88716" lon="6.69168">
        <ele>1063.87</ele>
        <time>2020-11-14T12:05:35.776Z</time>
      </trkpt>
      <trkpt lat="46.88723" lon="6.69176">
        <ele>1064.05</ele>
        <time>2020-11-14T12:05:45.791Z</time>
      </trkpt>
      <trkpt lat="46.88734" lon="6.69187">
        <ele>1064.64</ele>
        <time>2020-11-14T12:06:06.374Z</time>
      </trkpt>
      <trkpt lat="46.88747" lon="6.692">
        <ele>1065.1</ele>
        <time>2020-11-14T12:06:26.116Z</time>
      </trkpt>
      <trkpt lat="46.88775" lon="6.69225">
        <ele>1063.59</ele>
        <time>2020-11-14T12:06:33.697Z</time>
      </trkpt>
      <trkpt lat="46.88783" lon="6.69232">
        <ele>1063.41</ele>
        <time>2020-11-14T12:06:36.532Z</time>
      </trkpt>
      <trkpt lat="46.88787" lon="6.69238">
        <ele>1063.45</ele>
        <time>2020-11-14T12:06:42.152Z</time>
      </trkpt>
      <trkpt lat="46.88789" lon="6.69244">
        <ele>1063.08</ele>
        <time>2020-11-14T12:06:43.123Z</time>
      </trkpt>
      <trkpt lat="46.8879" lon="6.69253">
        <ele>1063.14</ele>
        <time>2020-11-14T12:06:49.399Z</time>
      </trkpt>
      <trkpt lat="46.88788" lon="6.69261">
        <ele>1062.9</ele>
        <time>2020-11-14T12:06:50.805Z</time>
      </trkpt>
      <trkpt lat="46.88784" lon="6.69277">
        <ele>1063.38</ele>
        <time>2020-11-14T12:07:07.984Z</time>
      </trkpt>
      <trkpt lat="46.88775" lon="6.69309">
        <ele>1064.34</ele>
        <time>2020-11-14T12:07:42.554Z</time>
      </trkpt>
      <trkpt lat="46.8877" lon="6.6933">
        <ele>1064.74</ele>
        <time>2020-11-14T12:08:00.942Z</time>
      </trkpt>
      <trkpt lat="46.8877" lon="6.6933">
        <ele>1064.74</ele>
        <time>2020-11-14T12:08:00.942Z</time>
      </trkpt>
      <trkpt lat="46.88769" lon="6.69335">
        <ele>1065.14</ele>
        <time>2020-11-14T12:08:10.607Z</time>
      </trkpt>
      <trkpt lat="46.88767" lon="6.69345">
        <ele>1065.34</ele>
        <time>2020-11-14T12:08:19.411Z</time>
      </trkpt>
      <trkpt lat="46.88766" lon="6.69357">
        <ele>1065.56</ele>
        <time>2020-11-14T12:08:29.445Z</time>
      </trkpt>
      <trkpt lat="46.88766" lon="6.69367">
        <ele>1065.55</ele>
        <time>2020-11-14T12:08:35.583Z</time>
      </trkpt>
      <trkpt lat="46.88766" lon="6.69376">
        <ele>1065.69</ele>
        <time>2020-11-14T12:08:42.719Z</time>
      </trkpt>
      <trkpt lat="46.88768" lon="6.69387">
        <ele>1065.88</ele>
        <time>2020-11-14T12:08:51.921Z</time>
      </trkpt>
      <trkpt lat="46.88771" lon="6.69401">
        <ele>1066.09</ele>
        <time>2020-11-14T12:09:03.314Z</time>
      </trkpt>
      <trkpt lat="46.88777" lon="6.69426">
        <ele>1065.7</ele>
        <time>2020-11-14T12:09:08.681Z</time>
      </trkpt>
      <trkpt lat="46.88782" lon="6.69449">
        <ele>1064.36</ele>
        <time>2020-11-14T12:09:12.191Z</time>
      </trkpt>
      <trkpt lat="46.88787" lon="6.69468">
        <ele>1063.56</ele>
        <time>2020-11-14T12:09:15.107Z</time>
      </trkpt>
      <trkpt lat="46.8879" lon="6.6948">
        <ele>1063.01</ele>
        <time>2020-11-14T12:09:16.859Z</time>
      </trkpt>
      <trkpt lat="46.88795" lon="6.69488">
        <ele>1062.67</ele>
        <time>2020-11-14T12:09:18.574Z</time>
      </trkpt>
      <trkpt lat="46.88799" lon="6.69492">
        <ele>1062.45</ele>
        <time>2020-11-14T12:09:19.700Z</time>
      </trkpt>
      <trkpt lat="46.88803" lon="6.69494">
        <ele>1062.41</ele>
        <time>2020-11-14T12:09:21.155Z</time>
      </trkpt>
      <trkpt lat="46.88809" lon="6.69493">
        <ele>1062.44</ele>
        <time>2020-11-14T12:09:26.965Z</time>
      </trkpt>
      <trkpt lat="46.88802" lon="6.69426">
        <ele>1066.91</ele>
        <time>2020-11-14T12:11:13.928Z</time>
      </trkpt>
      <trkpt lat="46.88803" lon="6.69415">
        <ele>1067.8</ele>
        <time>2020-11-14T12:11:35.724Z</time>
      </trkpt>
      <trkpt lat="46.88804" lon="6.69401">
        <ele>1068.52</ele>
        <time>2020-11-14T12:11:54.173Z</time>
      </trkpt>
      <trkpt lat="46.88806" lon="6.69391">
        <ele>1069.11</ele>
        <time>2020-11-14T12:12:08.743Z</time>
      </trkpt>
      <trkpt lat="46.88809" lon="6.69379">
        <ele>1069.86</ele>
        <time>2020-11-14T12:12:27.074Z</time>
      </trkpt>
      <trkpt lat="46.88813" lon="6.69367">
        <ele>1070.79</ele>
        <time>2020-11-14T12:12:49.279Z</time>
      </trkpt>
      <trkpt lat="46.88818" lon="6.69357">
        <ele>1071.42</ele>
        <time>2020-11-14T12:13:05.462Z</time>
      </trkpt>
      <trkpt lat="46.88824" lon="6.69349">
        <ele>1072.07</ele>
        <time>2020-11-14T12:13:21.694Z</time>
      </trkpt>
      <trkpt lat="46.88832" lon="6.69342">
        <ele>1073.03</ele>
        <time>2020-11-14T12:13:44.621Z</time>
      </trkpt>
      <trkpt lat="46.88848" lon="6.69329">
        <ele>1074.5</ele>
        <time>2020-11-14T12:14:21.291Z</time>
      </trkpt>
      <trkpt lat="46.88851" lon="6.69311">
        <ele>1074.38</ele>
        <time>2020-11-14T12:14:25.649Z</time>
      </trkpt>
      <trkpt lat="46.88854" lon="6.693">
        <ele>1073.71</ele>
        <time>2020-11-14T12:14:27.372Z</time>
      </trkpt>
      <trkpt lat="46.88858" lon="6.69285">
        <ele>1073.11</ele>
        <time>2020-11-14T12:14:29.735Z</time>
      </trkpt>
      <trkpt lat="46.88858" lon="6.69285">
        <ele>1073.11</ele>
        <time>2020-11-14T12:14:29.735Z</time>
      </trkpt>
      <trkpt lat="46.88859" lon="6.69281">
        <ele>1072.51</ele>
        <time>2020-11-14T12:14:30.355Z</time>
      </trkpt>
      <trkpt lat="46.88865" lon="6.69264">
        <ele>1071.6</ele>
        <time>2020-11-14T12:14:33.138Z</time>
      </trkpt>
      <trkpt lat="46.88867" lon="6.69254">
        <ele>1071.66</ele>
        <time>2020-11-14T12:14:40.224Z</time>
      </trkpt>
      <trkpt lat="46.88867" lon="6.69244">
        <ele>1071.67</ele>
        <time>2020-11-14T12:14:46.584Z</time>
      </trkpt>
      <trkpt lat="46.88865" lon="6.69237">
        <ele>1071.83</ele>
        <time>2020-11-14T12:14:53.222Z</time>
      </trkpt>
      <trkpt lat="46.88861" lon="6.69229">
        <ele>1071.85</ele>
        <time>2020-11-14T12:14:59.615Z</time>
      </trkpt>
      <trkpt lat="46.88852" lon="6.69216">
        <ele>1072.61</ele>
        <time>2020-11-14T12:15:21.359Z</time>
      </trkpt>
      <trkpt lat="46.88843" lon="6.69203">
        <ele>1072.84</ele>
        <time>2020-11-14T12:15:35.293Z</time>
      </trkpt>
      <trkpt lat="46.88838" lon="6.69195">
        <ele>1072.89</ele>
        <time>2020-11-14T12:15:42.545Z</time>
      </trkpt>
      <trkpt lat="46.88835" lon="6.69186">
        <ele>1073.18</ele>
        <time>2020-11-14T12:15:52.815Z</time>
      </trkpt>
      <trkpt lat="46.88832" lon="6.69173">
        <ele>1073.38</ele>
        <time>2020-11-14T12:16:03.517Z</time>
      </trkpt>
      <trkpt lat="46.8883" lon="6.69163">
        <ele>1073.71</ele>
        <time>2020-11-14T12:16:14.682Z</time>
      </trkpt>
      <trkpt lat="46.88829" lon="6.69152">
        <ele>1074.09</ele>
        <time>2020-11-14T12:16:26.868Z</time>
      </trkpt>
      <trkpt lat="46.8883" lon="6.69141">
        <ele>1074.76</ele>
        <time>2020-11-14T12:16:43.130Z</time>
      </trkpt>
      <trkpt lat="46.88835" lon="6.69114">
        <ele>1075.71</ele>
        <time>2020-11-14T12:17:13.765Z</time>
      </trkpt>
      <trkpt lat="46.8884" lon="6.69093">
        <ele>1077.58</ele>
        <time>2020-11-14T12:18:00.565Z</time>
      </trkpt>
      <trkpt lat="46.88844" lon="6.6906">
        <ele>1079.07</ele>
        <time>2020-11-14T12:18:41.365Z</time>
      </trkpt>
      <trkpt lat="46.88845" lon="6.69046">
        <ele>1079.96</ele>
        <time>2020-11-14T12:19:02.775Z</time>
      </trkpt>
      <trkpt lat="46.88848" lon="6.69017">
        <ele>1081.14</ele>
        <time>2020-11-14T12:19:36.945Z</time>
      </trkpt>
      <trkpt lat="46.88849" lon="6.69003">
        <ele>1082.31</ele>
        <time>2020-11-14T12:20:06.049Z</time>
      </trkpt>
      <trkpt lat="46.88849" lon="6.68967">
        <ele>1083.96</ele>
        <time>2020-11-14T12:20:50.525Z</time>
      </trkpt>
      <trkpt lat="46.88847" lon="6.68951">
        <ele>1084.47</ele>
        <time>2020-11-14T12:21:07.904Z</time>
      </trkpt>
      <trkpt lat="46.88842" lon="6.68923">
        <ele>1084.99</ele>
        <time>2020-11-14T12:21:31.827Z</time>
      </trkpt>
      <trkpt lat="46.8883" lon="6.68883">
        <ele>1085.77</ele>
        <time>2020-11-14T12:22:07.866Z</time>
      </trkpt>
      <trkpt lat="46.88828" lon="6.68874">
        <ele>1085.69</ele>
        <time>2020-11-14T12:22:10.009Z</time>
      </trkpt>
      <trkpt lat="46.88827" lon="6.68865">
        <ele>1085.89</ele>
        <time>2020-11-14T12:22:18.114Z</time>
      </trkpt>
      <trkpt lat="46.88827" lon="6.68857">
        <ele>1085.9</ele>
        <time>2020-11-14T12:22:23.220Z</time>
      </trkpt>
      <trkpt lat="46.88828" lon="6.68849">
        <ele>1086.21</ele>
        <time>2020-11-14T12:22:32.495Z</time>
      </trkpt>
      <trkpt lat="46.88828" lon="6.68838">
        <ele>1086.58</ele>
        <time>2020-11-14T12:22:44.504Z</time>
      </trkpt>
      <trkpt lat="46.88827" lon="6.68821">
        <ele>1086.91</ele>
        <time>2020-11-14T12:22:58.958Z</time>
      </trkpt>
      <trkpt lat="46.88826" lon="6.68795">
        <ele>1087.86</ele>
        <time>2020-11-14T12:23:28.181Z</time>
      </trkpt>
      <trkpt lat="46.88826" lon="6.68732">
        <ele>1090.28</ele>
        <time>2020-11-14T12:24:40.242Z</time>
      </trkpt>
      <trkpt lat="46.88825" lon="6.6871">
        <ele>1090.44</ele>
        <time>2020-11-14T12:24:55.570Z</time>
      </trkpt>
      <trkpt lat="46.88826" lon="6.68695">
        <ele>1090.93</ele>
        <time>2020-11-14T12:25:11.849Z</time>
      </trkpt>
      <trkpt lat="46.88829" lon="6.68674">
        <ele>1090.92</ele>
        <time>2020-11-14T12:25:25.173Z</time>
      </trkpt>
      <trkpt lat="46.88837" lon="6.68641">
        <ele>1092.15</ele>
        <time>2020-11-14T12:26:03.951Z</time>
      </trkpt>
      <trkpt lat="46.8884" lon="6.68613">
        <ele>1092.84</ele>
        <time>2020-11-14T12:26:30.352Z</time>
      </trkpt>
      <trkpt lat="46.88847" lon="6.68576">
        <ele>1094.62</ele>
        <time>2020-11-14T12:27:18.056Z</time>
      </trkpt>
      <trkpt lat="46.8885" lon="6.6856">
        <ele>1094.88</ele>
        <time>2020-11-14T12:27:31.236Z</time>
      </trkpt>
      <trkpt lat="46.88852" lon="6.68526">
        <ele>1095.28</ele>
        <time>2020-11-14T12:27:56.643Z</time>
      </trkpt>
      <trkpt lat="46.88854" lon="6.68511">
        <ele>1095.52</ele>
        <time>2020-11-14T12:28:08.791Z</time>
      </trkpt>
      <trkpt lat="46.88856" lon="6.68489">
        <ele>1095.39</ele>
        <time>2020-11-14T12:28:14.076Z</time>
      </trkpt>
      <trkpt lat="46.88859" lon="6.68473">
        <ele>1095.15</ele>
        <time>2020-11-14T12:28:17.450Z</time>
      </trkpt>
      <trkpt lat="46.88859" lon="6.68473">
        <ele>1095.15</ele>
        <time>2020-11-14T12:28:17.450Z</time>
      </trkpt>
      <trkpt lat="46.8886" lon="6.68465">
        <ele>1094.9</ele>
        <time>2020-11-14T12:28:18.747Z</time>
      </trkpt>
      <trkpt lat="46.88864" lon="6.68447">
        <ele>1094.23</ele>
        <time>2020-11-14T12:28:21.590Z</time>
      </trkpt>
      <trkpt lat="46.88881" lon="6.68402">
        <ele>1093.31</ele>
        <time>2020-11-14T12:28:31.475Z</time>
      </trkpt>
      <trkpt lat="46.88883" lon="6.68395">
        <ele>1093.35</ele>
        <time>2020-11-14T12:28:36.599Z</time>
      </trkpt>
      <trkpt lat="46.88887" lon="6.68382">
        <ele>1093.38</ele>
        <time>2020-11-14T12:28:45.805Z</time>
      </trkpt>
      <trkpt lat="46.88892" lon="6.68364">
        <ele>1093.4</ele>
        <time>2020-11-14T12:28:58.169Z</time>
      </trkpt>
      <trkpt lat="46.88893" lon="6.68354">
        <ele>1093.54</ele>
        <time>2020-11-14T12:29:05.957Z</time>
      </trkpt>
      <trkpt lat="46.88896" lon="6.68309">
        <ele>1093.89</ele>
        <time>2020-11-14T12:29:37.616Z</time>
      </trkpt>
      <trkpt lat="46.88898" lon="6.68297">
        <ele>1094.6</ele>
        <time>2020-11-14T12:29:55.070Z</time>
      </trkpt>
      <trkpt lat="46.88901" lon="6.68288">
        <ele>1095.07</ele>
        <time>2020-11-14T12:30:07.591Z</time>
      </trkpt>
      <trkpt lat="46.8892" lon="6.68245">
        <ele>1099.63</ele>
        <time>2020-11-14T12:32:06.176Z</time>
      </trkpt>
      <trkpt lat="46.88929" lon="6.68228">
        <ele>1101.61</ele>
        <time>2020-11-14T12:32:58.228Z</time>
      </trkpt>
      <trkpt lat="46.88939" lon="6.68205">
        <ele>1103.39</ele>
        <time>2020-11-14T12:33:40.864Z</time>
      </trkpt>
      <trkpt lat="46.88948" lon="6.68182">
        <ele>1105.51</ele>
        <time>2020-11-14T12:34:32.730Z</time>
      </trkpt>
      <trkpt lat="46.88957" lon="6.68159">
        <ele>1107.96</ele>
        <time>2020-11-14T12:35:36.882Z</time>
      </trkpt>
      <trkpt lat="46.88966" lon="6.68125">
        <ele>1110.46</ele>
        <time>2020-11-14T12:36:36.576Z</time>
      </trkpt>
      <trkpt lat="46.8897" lon="6.68105">
        <ele>1111.34</ele>
        <time>2020-11-14T12:37:01.357Z</time>
      </trkpt>
      <trkpt lat="46.88972" lon="6.68091">
        <ele>1112.49</ele>
        <time>2020-11-14T12:37:29.547Z</time>
      </trkpt>
      <trkpt lat="46.88972" lon="6.68077">
        <ele>1113.59</ele>
        <time>2020-11-14T12:37:56.296Z</time>
      </trkpt>
      <trkpt lat="46.88971" lon="6.68068">
        <ele>1114.6</ele>
        <time>2020-11-14T12:38:18.366Z</time>
      </trkpt>
      <trkpt lat="46.88968" lon="6.68061">
        <ele>1115.73</ele>
        <time>2020-11-14T12:38:38.366Z</time>
      </trkpt>
      <trkpt lat="46.88963" lon="6.68055">
        <ele>1116.68</ele>
        <time>2020-11-14T12:39:01.269Z</time>
      </trkpt>
      <trkpt lat="46.88951" lon="6.68036">
        <ele>1118.74</ele>
        <time>2020-11-14T12:39:51.584Z</time>
      </trkpt>
      <trkpt lat="46.88944" lon="6.68024">
        <ele>1119.78</ele>
        <time>2020-11-14T12:40:16.472Z</time>
      </trkpt>
      <trkpt lat="46.88941" lon="6.68016">
        <ele>1120.45</ele>
        <time>2020-11-14T12:40:32.527Z</time>
      </trkpt>
      <trkpt lat="46.88941" lon="6.68008">
        <ele>1120.85</ele>
        <time>2020-11-14T12:40:42.876Z</time>
      </trkpt>
      <trkpt lat="46.88943" lon="6.67996">
        <ele>1121.87</ele>
        <time>2020-11-14T12:41:08.168Z</time>
      </trkpt>
      <trkpt lat="46.88945" lon="6.67983">
        <ele>1123.06</ele>
        <time>2020-11-14T12:41:39.185Z</time>
      </trkpt>
      <trkpt lat="46.88949" lon="6.67976">
        <ele>1123.75</ele>
        <time>2020-11-14T12:41:55.800Z</time>
      </trkpt>
      <trkpt lat="46.88955" lon="6.67965">
        <ele>1125.35</ele>
        <time>2020-11-14T12:42:29.866Z</time>
      </trkpt>
      <trkpt lat="46.88962" lon="6.67949">
        <ele>1127.22</ele>
        <time>2020-11-14T12:43:15.851Z</time>
      </trkpt>
      <trkpt lat="46.88962" lon="6.67949">
        <ele>1127.22</ele>
        <time>2020-11-14T12:43:15.851Z</time>
      </trkpt>
      <trkpt lat="46.88969" lon="6.67936">
        <ele>1129.1</ele>
        <time>2020-11-14T12:43:55.911Z</time>
      </trkpt>
      <trkpt lat="46.88975" lon="6.67919">
        <ele>1131.46</ele>
        <time>2020-11-14T12:44:42.224Z</time>
      </trkpt>
      <trkpt lat="46.8899" lon="6.67883">
        <ele>1135.22</ele>
        <time>2020-11-14T12:46:20.114Z</time>
      </trkpt>
      <trkpt lat="46.89006" lon="6.6785">
        <ele>1139.67</ele>
        <time>2020-11-14T12:47:58.051Z</time>
      </trkpt>
      <trkpt lat="46.89017" lon="6.67824">
        <ele>1142.85</ele>
        <time>2020-11-14T12:49:12.068Z</time>
      </trkpt>
      <trkpt lat="46.89022" lon="6.67811">
        <ele>1144.08</ele>
        <time>2020-11-14T12:49:42.545Z</time>
      </trkpt>
      <trkpt lat="46.89027" lon="6.67788">
        <ele>1146.13</ele>
        <time>2020-11-14T12:50:34.143Z</time>
      </trkpt>
      <trkpt lat="46.89033" lon="6.67755">
        <ele>1149</ele>
        <time>2020-11-14T12:51:45.950Z</time>
      </trkpt>
      <trkpt lat="46.89036" lon="6.67737">
        <ele>1150.78</ele>
        <time>2020-11-14T12:52:30.796Z</time>
      </trkpt>
      <trkpt lat="46.89037" lon="6.67721">
        <ele>1151.98</ele>
        <time>2020-11-14T12:52:59.625Z</time>
      </trkpt>
      <trkpt lat="46.8904" lon="6.67714">
        <ele>1152.56</ele>
        <time>2020-11-14T12:53:13.475Z</time>
      </trkpt>
      <trkpt lat="46.89043" lon="6.6771">
        <ele>1153.32</ele>
        <time>2020-11-14T12:53:27.850Z</time>
      </trkpt>
      <trkpt lat="46.89042" lon="6.67691">
        <ele>1154.56</ele>
        <time>2020-11-14T12:53:57.563Z</time>
      </trkpt>
      <trkpt lat="46.89043" lon="6.67662">
        <ele>1156.26</ele>
        <time>2020-11-14T12:54:39.142Z</time>
      </trkpt>
      <trkpt lat="46.89043" lon="6.67642">
        <ele>1157.51</ele>
        <time>2020-11-14T12:55:09.271Z</time>
      </trkpt>
      <trkpt lat="46.89042" lon="6.67612">
        <ele>1159</ele>
        <time>2020-11-14T12:55:47.954Z</time>
      </trkpt>
      <trkpt lat="46.89041" lon="6.67594">
        <ele>1159.44</ele>
        <time>2020-11-14T12:56:04.782Z</time>
      </trkpt>
      <trkpt lat="46.8904" lon="6.67574">
        <ele>1159.58</ele>
        <time>2020-11-14T12:56:18.666Z</time>
      </trkpt>
      <trkpt lat="46.89038" lon="6.67538">
        <ele>1159.82</ele>
        <time>2020-11-14T12:56:43.547Z</time>
      </trkpt>
      <trkpt lat="46.89037" lon="6.67525">
        <ele>1159.68</ele>
        <time>2020-11-14T12:56:46.389Z</time>
      </trkpt>
      <trkpt lat="46.89037" lon="6.67524">
        <ele>1159.71</ele>
        <time>2020-11-14T12:56:47.439Z</time>
      </trkpt>
      <trkpt lat="46.89037" lon="6.67523">
        <ele>1159.71</ele>
        <time>2020-11-14T12:56:48.067Z</time>
      </trkpt>
      <trkpt lat="46.89035" lon="6.67515">
        <ele>1159.73</ele>
        <time>2020-11-14T12:56:53.586Z</time>
      </trkpt>
      <trkpt lat="46.89033" lon="6.67507">
        <ele>1159.7</ele>
        <time>2020-11-14T12:56:58.540Z</time>
      </trkpt>
      <trkpt lat="46.8903" lon="6.67498">
        <ele>1159.55</ele>
        <time>2020-11-14T12:57:00.559Z</time>
      </trkpt>
      <trkpt lat="46.89021" lon="6.67476">
        <ele>1159.48</ele>
        <time>2020-11-14T12:57:15.722Z</time>
      </trkpt>
      <trkpt lat="46.88965" lon="6.67337">
        <ele>1161.27</ele>
        <time>2020-11-14T12:59:14.664Z</time>
      </trkpt>
      <trkpt lat="46.88954" lon="6.67309">
        <ele>1161.46</ele>
        <time>2020-11-14T12:59:36.666Z</time>
      </trkpt>
      <trkpt lat="46.88951" lon="6.67312">
        <ele>1161.21</ele>
        <time>2020-11-14T12:59:37.440Z</time>
      </trkpt>
      <trkpt lat="46.88948" lon="6.67313">
        <ele>1161.14</ele>
        <time>2020-11-14T12:59:38.339Z</time>
      </trkpt>
      <trkpt lat="46.88945" lon="6.67312">
        <ele>1160.97</ele>
        <time>2020-11-14T12:59:38.996Z</time>
      </trkpt>
      <trkpt lat="46.88942" lon="6.67307">
        <ele>1161</ele>
        <time>2020-11-14T12:59:43.440Z</time>
      </trkpt>
      <trkpt lat="46.88918" lon="6.67248">
        <ele>1162.55</ele>
        <time>2020-11-14T13:00:45.220Z</time>
      </trkpt>
      <trkpt lat="46.88915" lon="6.67242">
        <ele>1163</ele>
        <time>2020-11-14T13:00:56.137Z</time>
      </trkpt>
      <trkpt lat="46.88911" lon="6.67237">
        <ele>1162.89</ele>
        <time>2020-11-14T13:00:57.707Z</time>
      </trkpt>
      <trkpt lat="46.88913" lon="6.67234">
        <ele>1163.31</ele>
        <time>2020-11-14T13:01:07.852Z</time>
      </trkpt>
      <trkpt lat="46.88915" lon="6.6723">
        <ele>1163.81</ele>
        <time>2020-11-14T13:01:19.848Z</time>
      </trkpt>
      <trkpt lat="46.88916" lon="6.67223">
        <ele>1164.18</ele>
        <time>2020-11-14T13:01:29.285Z</time>
      </trkpt>
      <trkpt lat="46.88916" lon="6.67211">
        <ele>1164.95</ele>
        <time>2020-11-14T13:01:47.768Z</time>
      </trkpt>
      <trkpt lat="46.88919" lon="6.67205">
        <ele>1165.25</ele>
        <time>2020-11-14T13:01:56.440Z</time>
      </trkpt>
      <trkpt lat="46.88924" lon="6.67196">
        <ele>1166</ele>
        <time>2020-11-14T13:02:14.425Z</time>
      </trkpt>
      <trkpt lat="46.88931" lon="6.67188">
        <ele>1166.68</ele>
        <time>2020-11-14T13:02:31.690Z</time>
      </trkpt>
      <trkpt lat="46.88937" lon="6.67181">
        <ele>1167.69</ele>
        <time>2020-11-14T13:02:58.174Z</time>
      </trkpt>
      <trkpt lat="46.88941" lon="6.67173">
        <ele>1168.38</ele>
        <time>2020-11-14T13:03:14.649Z</time>
      </trkpt>
      <trkpt lat="46.88944" lon="6.67161">
        <ele>1169.22</ele>
        <time>2020-11-14T13:03:34.755Z</time>
      </trkpt>
      <trkpt lat="46.88945" lon="6.67149">
        <ele>1169.95</ele>
        <time>2020-11-14T13:03:52.474Z</time>
      </trkpt>
      <trkpt lat="46.88947" lon="6.67067">
        <ele>1172.55</ele>
        <time>2020-11-14T13:05:20.415Z</time>
      </trkpt>
      <trkpt lat="46.88947" lon="6.67067">
        <ele>1172.55</ele>
        <time>2020-11-14T13:05:20.415Z</time>
      </trkpt>
      <trkpt lat="46.88947" lon="6.67048">
        <ele>1175.14</ele>
        <time>2020-11-14T13:06:06.405Z</time>
      </trkpt>
      <trkpt lat="46.88948" lon="6.67017">
        <ele>1177.13</ele>
        <time>2020-11-14T13:06:54.178Z</time>
      </trkpt>
      <trkpt lat="46.88949" lon="6.66998">
        <ele>1178.3</ele>
        <time>2020-11-14T13:07:22.474Z</time>
      </trkpt>
      <trkpt lat="46.88952" lon="6.66979">
        <ele>1179.52</ele>
        <time>2020-11-14T13:07:51.875Z</time>
      </trkpt>
      <trkpt lat="46.88954" lon="6.6697">
        <ele>1180.1</ele>
        <time>2020-11-14T13:08:05.908Z</time>
      </trkpt>
      <trkpt lat="46.88962" lon="6.66939">
        <ele>1182.43</ele>
        <time>2020-11-14T13:09:01.551Z</time>
      </trkpt>
      <trkpt lat="46.88966" lon="6.66925">
        <ele>1183.44</ele>
        <time>2020-11-14T13:09:25.701Z</time>
      </trkpt>
      <trkpt lat="46.88968" lon="6.66913">
        <ele>1184.02</ele>
        <time>2020-11-14T13:09:41.148Z</time>
      </trkpt>
      <trkpt lat="46.88968" lon="6.66905">
        <ele>1184.41</ele>
        <time>2020-11-14T13:09:51.353Z</time>
      </trkpt>
      <trkpt lat="46.88967" lon="6.66897">
        <ele>1184.95</ele>
        <time>2020-11-14T13:10:04.267Z</time>
      </trkpt>
      <trkpt lat="46.88967" lon="6.6689">
        <ele>1185.38</ele>
        <time>2020-11-14T13:10:14.666Z</time>
      </trkpt>
      <trkpt lat="46.88964" lon="6.66876">
        <ele>1186.36</ele>
        <time>2020-11-14T13:10:38.092Z</time>
      </trkpt>
      <trkpt lat="46.88961" lon="6.6686">
        <ele>1187.52</ele>
        <time>2020-11-14T13:11:05.790Z</time>
      </trkpt>
      <trkpt lat="46.88959" lon="6.66849">
        <ele>1188.22</ele>
        <time>2020-11-14T13:11:22.714Z</time>
      </trkpt>
      <trkpt lat="46.88956" lon="6.66828">
        <ele>1189.64</ele>
        <time>2020-11-14T13:11:56.683Z</time>
      </trkpt>
      <trkpt lat="46.88955" lon="6.66808">
        <ele>1190.86</ele>
        <time>2020-11-14T13:12:26.246Z</time>
      </trkpt>
      <trkpt lat="46.88954" lon="6.66792">
        <ele>1191.88</ele>
        <time>2020-11-14T13:12:50.768Z</time>
      </trkpt>
      <trkpt lat="46.88955" lon="6.6678">
        <ele>1192.65</ele>
        <time>2020-11-14T13:13:09.270Z</time>
      </trkpt>
      <trkpt lat="46.88956" lon="6.66764">
        <ele>1193.44</ele>
        <time>2020-11-14T13:13:29.861Z</time>
      </trkpt>
      <trkpt lat="46.88955" lon="6.66753">
        <ele>1194.16</ele>
        <time>2020-11-14T13:13:47.120Z</time>
      </trkpt>
      <trkpt lat="46.88954" lon="6.66745">
        <ele>1194.64</ele>
        <time>2020-11-14T13:13:58.835Z</time>
      </trkpt>
      <trkpt lat="46.88949" lon="6.66732">
        <ele>1195.42</ele>
        <time>2020-11-14T13:14:18.645Z</time>
      </trkpt>
      <trkpt lat="46.88945" lon="6.66722">
        <ele>1196.15</ele>
        <time>2020-11-14T13:14:36.216Z</time>
      </trkpt>
      <trkpt lat="46.88939" lon="6.66713">
        <ele>1196.84</ele>
        <time>2020-11-14T13:14:53.430Z</time>
      </trkpt>
      <trkpt lat="46.88937" lon="6.66706">
        <ele>1197.28</ele>
        <time>2020-11-14T13:15:04.220Z</time>
      </trkpt>
      <trkpt lat="46.88937" lon="6.66701">
        <ele>1197.57</ele>
        <time>2020-11-14T13:15:11.331Z</time>
      </trkpt>
      <trkpt lat="46.88938" lon="6.66697">
        <ele>1197.8</ele>
        <time>2020-11-14T13:15:17.102Z</time>
      </trkpt>
      <trkpt lat="46.88939" lon="6.66693">
        <ele>1198</ele>
        <time>2020-11-14T13:15:22.428Z</time>
      </trkpt>
      <trkpt lat="46.8893" lon="6.66677">
        <ele>1198.12</ele>
        <time>2020-11-14T13:15:36.527Z</time>
      </trkpt>
      <trkpt lat="46.88926" lon="6.66671">
        <ele>1198.03</ele>
        <time>2020-11-14T13:15:38.347Z</time>
      </trkpt>
      <trkpt lat="46.88923" lon="6.66662">
        <ele>1197.88</ele>
        <time>2020-11-14T13:15:40.366Z</time>
      </trkpt>
      <trkpt lat="46.88898" lon="6.6661">
        <ele>1197.27</ele>
        <time>2020-11-14T13:15:54.461Z</time>
      </trkpt>
      <trkpt lat="46.88889" lon="6.6659">
        <ele>1197</ele>
        <time>2020-11-14T13:15:59.610Z</time>
      </trkpt>
      <trkpt lat="46.88878" lon="6.66568">
        <ele>1196.61</ele>
        <time>2020-11-14T13:16:05.169Z</time>
      </trkpt>
      <trkpt lat="46.88866" lon="6.66545">
        <ele>1196.26</ele>
        <time>2020-11-14T13:16:11.301Z</time>
      </trkpt>
      <trkpt lat="46.88866" lon="6.66544">
        <ele>1196.26</ele>
        <time>2020-11-14T13:16:11.929Z</time>
      </trkpt>
      <trkpt lat="46.88864" lon="6.6654">
        <ele>1195.91</ele>
        <time>2020-11-14T13:16:12.650Z</time>
      </trkpt>
      <trkpt lat="46.88848" lon="6.66511">
        <ele>1195.28</ele>
        <time>2020-11-14T13:16:19.931Z</time>
      </trkpt>
      <trkpt lat="46.88838" lon="6.66497">
        <ele>1194.95</ele>
        <time>2020-11-14T13:16:23.926Z</time>
      </trkpt>
      <trkpt lat="46.88809" lon="6.66469">
        <ele>1193.9</ele>
        <time>2020-11-14T13:16:33.287Z</time>
      </trkpt>
      <trkpt lat="46.88792" lon="6.6645">
        <ele>1193.61</ele>
        <time>2020-11-14T13:16:40.269Z</time>
      </trkpt>
      <trkpt lat="46.88778" lon="6.66434">
        <ele>1193.25</ele>
        <time>2020-11-14T13:16:45.612Z</time>
      </trkpt>
      <trkpt lat="46.88776" lon="6.66431">
        <ele>1193.23</ele>
        <time>2020-11-14T13:16:47.987Z</time>
      </trkpt>
      <trkpt lat="46.88769" lon="6.66422">
        <ele>1193.22</ele>
        <time>2020-11-14T13:16:56.406Z</time>
      </trkpt>
      <trkpt lat="46.8876" lon="6.66409">
        <ele>1193.03</ele>
        <time>2020-11-14T13:17:00.458Z</time>
      </trkpt>
      <trkpt lat="46.88746" lon="6.66381">
        <ele>1192.25</ele>
        <time>2020-11-14T13:17:06.672Z</time>
      </trkpt>
      <trkpt lat="46.88733" lon="6.66359">
        <ele>1191.71</ele>
        <time>2020-11-14T13:17:12.203Z</time>
      </trkpt>
      <trkpt lat="46.88713" lon="6.66328">
        <ele>1189.85</ele>
        <time>2020-11-14T13:17:18.009Z</time>
      </trkpt>
      <trkpt lat="46.88691" lon="6.66296">
        <ele>1188.09</ele>
        <time>2020-11-14T13:17:24.550Z</time>
      </trkpt>
      <trkpt lat="46.88677" lon="6.66274">
        <ele>1186.78</ele>
        <time>2020-11-14T13:17:28.646Z</time>
      </trkpt>
      <trkpt lat="46.88671" lon="6.66262">
        <ele>1186.37</ele>
        <time>2020-11-14T13:17:31.121Z</time>
      </trkpt>
      <trkpt lat="46.88662" lon="6.66239">
        <ele>1186.36</ele>
        <time>2020-11-14T13:17:47.615Z</time>
      </trkpt>
      <trkpt lat="46.88645" lon="6.66177">
        <ele>1188.13</ele>
        <time>2020-11-14T13:18:52.624Z</time>
      </trkpt>
      <trkpt lat="46.88637" lon="6.66148">
        <ele>1188.12</ele>
        <time>2020-11-14T13:19:12.111Z</time>
      </trkpt>
      <trkpt lat="46.88635" lon="6.66137">
        <ele>1188.31</ele>
        <time>2020-11-14T13:19:21.313Z</time>
      </trkpt>
      <trkpt lat="46.88633" lon="6.66133">
        <ele>1188.42</ele>
        <time>2020-11-14T13:19:25.740Z</time>
      </trkpt>
      <trkpt lat="46.8863" lon="6.6613">
        <ele>1188.6</ele>
        <time>2020-11-14T13:19:31.557Z</time>
      </trkpt>
      <trkpt lat="46.88627" lon="6.66128">
        <ele>1188.8</ele>
        <time>2020-11-14T13:19:37.248Z</time>
      </trkpt>
      <trkpt lat="46.8862" lon="6.66127">
        <ele>1189.27</ele>
        <time>2020-11-14T13:19:49.940Z</time>
      </trkpt>
      <trkpt lat="46.88613" lon="6.66127">
        <ele>1190.12</ele>
        <time>2020-11-14T13:20:11.067Z</time>
      </trkpt>
      <trkpt lat="46.88608" lon="6.66125">
        <ele>1190.37</ele>
        <time>2020-11-14T13:20:19.294Z</time>
      </trkpt>
      <trkpt lat="46.88603" lon="6.66123">
        <ele>1190.64</ele>
        <time>2020-11-14T13:20:27.732Z</time>
      </trkpt>
      <trkpt lat="46.88586" lon="6.66114">
        <ele>1191.71</ele>
        <time>2020-11-14T13:20:58.619Z</time>
      </trkpt>
      <trkpt lat="46.88574" lon="6.66107">
        <ele>1192.48</ele>
        <time>2020-11-14T13:21:20.754Z</time>
      </trkpt>
      <trkpt lat="46.8857" lon="6.66104">
        <ele>1192.59</ele>
        <time>2020-11-14T13:21:26.074Z</time>
      </trkpt>
      <trkpt lat="46.88569" lon="6.66104">
        <ele>1192.59</ele>
        <time>2020-11-14T13:21:26.992Z</time>
      </trkpt>
      <trkpt lat="46.88567" lon="6.66102">
        <ele>1192.7</ele>
        <time>2020-11-14T13:21:30.768Z</time>
      </trkpt>
      <trkpt lat="46.88559" lon="6.66095">
        <ele>1193.12</ele>
        <time>2020-11-14T13:21:45.265Z</time>
      </trkpt>
      <trkpt lat="46.8855" lon="6.66086">
        <ele>1193.7</ele>
        <time>2020-11-14T13:22:03.144Z</time>
      </trkpt>
      <trkpt lat="46.88536" lon="6.66067">
        <ele>1194.9</ele>
        <time>2020-11-14T13:22:36.621Z</time>
      </trkpt>
      <trkpt lat="46.88529" lon="6.66054">
        <ele>1195.37</ele>
        <time>2020-11-14T13:22:53.389Z</time>
      </trkpt>
      <trkpt lat="46.88519" lon="6.66034">
        <ele>1195.8</ele>
        <time>2020-11-14T13:23:13.654Z</time>
      </trkpt>
      <trkpt lat="46.88508" lon="6.66008">
        <ele>1195.89</ele>
        <time>2020-11-14T13:23:33.633Z</time>
      </trkpt>
      <trkpt lat="46.88502" lon="6.65998">
        <ele>1195.51</ele>
        <time>2020-11-14T13:23:35.819Z</time>
      </trkpt>
      <trkpt lat="46.88495" lon="6.65987">
        <ele>1195.42</ele>
        <time>2020-11-14T13:23:39.388Z</time>
      </trkpt>
      <trkpt lat="46.8849" lon="6.65982">
        <ele>1195.33</ele>
        <time>2020-11-14T13:23:41.333Z</time>
      </trkpt>
      <trkpt lat="46.88485" lon="6.65978">
        <ele>1195.21</ele>
        <time>2020-11-14T13:23:43.031Z</time>
      </trkpt>
      <trkpt lat="46.88481" lon="6.65977">
        <ele>1195.18</ele>
        <time>2020-11-14T13:23:44.468Z</time>
      </trkpt>
      <trkpt lat="46.88476" lon="6.65976">
        <ele>1195.12</ele>
        <time>2020-11-14T13:23:46.151Z</time>
      </trkpt>
      <trkpt lat="46.8847" lon="6.65976">
        <ele>1195.09</ele>
        <time>2020-11-14T13:23:51.268Z</time>
      </trkpt>
      <trkpt lat="46.88463" lon="6.65978">
        <ele>1195.15</ele>
        <time>2020-11-14T13:23:58.364Z</time>
      </trkpt>
      <trkpt lat="46.88451" lon="6.65981">
        <ele>1194.45</ele>
        <time>2020-11-14T13:24:00.915Z</time>
      </trkpt>
      <trkpt lat="46.88448" lon="6.65982">
        <ele>1194.24</ele>
        <time>2020-11-14T13:24:01.570Z</time>
      </trkpt>
      <trkpt lat="46.88426" lon="6.65981">
        <ele>1192.91</ele>
        <time>2020-11-14T13:24:06.075Z</time>
      </trkpt>
      <trkpt lat="46.88406" lon="6.6598">
        <ele>1191.54</ele>
        <time>2020-11-14T13:24:10.334Z</time>
      </trkpt>
      <trkpt lat="46.88368" lon="6.65973">
        <ele>1188.61</ele>
        <time>2020-11-14T13:24:18.487Z</time>
      </trkpt>
      <trkpt lat="46.8835" lon="6.6597">
        <ele>1186.74</ele>
        <time>2020-11-14T13:24:22.343Z</time>
      </trkpt>
      <trkpt lat="46.88343" lon="6.65971">
        <ele>1185.76</ele>
        <time>2020-11-14T13:24:23.840Z</time>
      </trkpt>
      <trkpt lat="46.88334" lon="6.65973">
        <ele>1184.63</ele>
        <time>2020-11-14T13:24:25.777Z</time>
      </trkpt>
      <trkpt lat="46.88323" lon="6.65978">
        <ele>1183.09</ele>
        <time>2020-11-14T13:24:28.229Z</time>
      </trkpt>
      <trkpt lat="46.88315" lon="6.65982">
        <ele>1182.13</ele>
        <time>2020-11-14T13:24:30.028Z</time>
      </trkpt>
      <trkpt lat="46.88307" lon="6.65987">
        <ele>1181.64</ele>
        <time>2020-11-14T13:24:31.869Z</time>
      </trkpt>
      <trkpt lat="46.88281" lon="6.66014">
        <ele>1177.84</ele>
        <time>2020-11-14T13:24:38.655Z</time>
      </trkpt>
      <trkpt lat="46.88264" lon="6.66036">
        <ele>1175.41</ele>
        <time>2020-11-14T13:24:43.486Z</time>
      </trkpt>
      <trkpt lat="46.88249" lon="6.66054">
        <ele>1172.89</ele>
        <time>2020-11-14T13:24:47.615Z</time>
      </trkpt>
      <trkpt lat="46.88237" lon="6.66066">
        <ele>1171.43</ele>
        <time>2020-11-14T13:24:50.709Z</time>
      </trkpt>
      <trkpt lat="46.88225" lon="6.66077">
        <ele>1170.62</ele>
        <time>2020-11-14T13:24:53.684Z</time>
      </trkpt>
      <trkpt lat="46.88217" lon="6.66082">
        <ele>1170.79</ele>
        <time>2020-11-14T13:25:03.414Z</time>
      </trkpt>
      <trkpt lat="46.88204" lon="6.66086">
        <ele>1172.05</ele>
        <time>2020-11-14T13:25:33.619Z</time>
      </trkpt>
      <trkpt lat="46.88191" lon="6.66087">
        <ele>1172.36</ele>
        <time>2020-11-14T13:25:48.908Z</time>
      </trkpt>
      <trkpt lat="46.88184" lon="6.66087">
        <ele>1172.91</ele>
        <time>2020-11-14T13:26:02.736Z</time>
      </trkpt>
      <trkpt lat="46.88179" lon="6.66085">
        <ele>1172.74</ele>
        <time>2020-11-14T13:26:04.096Z</time>
      </trkpt>
      <trkpt lat="46.88175" lon="6.66081">
        <ele>1173.54</ele>
        <time>2020-11-14T13:26:21.256Z</time>
      </trkpt>
      <trkpt lat="46.88171" lon="6.66072">
        <ele>1174.3</ele>
        <time>2020-11-14T13:26:39.411Z</time>
      </trkpt>
      <trkpt lat="46.88167" lon="6.66063">
        <ele>1174.83</ele>
        <time>2020-11-14T13:26:53.201Z</time>
      </trkpt>
      <trkpt lat="46.88163" lon="6.66052">
        <ele>1176.32</ele>
        <time>2020-11-14T13:27:23.364Z</time>
      </trkpt>
      <trkpt lat="46.88162" lon="6.66048">
        <ele>1177</ele>
        <time>2020-11-14T13:27:33.675Z</time>
      </trkpt>
      <trkpt lat="46.8816" lon="6.66043">
        <ele>1177.56</ele>
        <time>2020-11-14T13:27:47.700Z</time>
      </trkpt>
      <trkpt lat="46.88159" lon="6.66041">
        <ele>1177.68</ele>
        <time>2020-11-14T13:27:50.850Z</time>
      </trkpt>
      <trkpt lat="46.88159" lon="6.6604">
        <ele>1177.68</ele>
        <time>2020-11-14T13:27:51.478Z</time>
      </trkpt>
      <trkpt lat="46.88158" lon="6.66039">
        <ele>1177.79</ele>
        <time>2020-11-14T13:27:54.132Z</time>
      </trkpt>
      <trkpt lat="46.88156" lon="6.66034">
        <ele>1178.35</ele>
        <time>2020-11-14T13:28:08.157Z</time>
      </trkpt>
      <trkpt lat="46.88153" lon="6.66026">
        <ele>1179.03</ele>
        <time>2020-11-14T13:28:24.487Z</time>
      </trkpt>
      <trkpt lat="46.88151" lon="6.66024">
        <ele>1179.24</ele>
        <time>2020-11-14T13:28:29.607Z</time>
      </trkpt>
      <trkpt lat="46.88149" lon="6.66024">
        <ele>1179.17</ele>
        <time>2020-11-14T13:28:30.121Z</time>
      </trkpt>
      <trkpt lat="46.88148" lon="6.66023">
        <ele>1179.23</ele>
        <time>2020-11-14T13:28:32.060Z</time>
      </trkpt>
      <trkpt lat="46.88147" lon="6.6602">
        <ele>1179.58</ele>
        <time>2020-11-14T13:28:40.140Z</time>
      </trkpt>
      <trkpt lat="46.88145" lon="6.66016">
        <ele>1179.87</ele>
        <time>2020-11-14T13:28:47.234Z</time>
      </trkpt>
      <trkpt lat="46.88142" lon="6.66009">
        <ele>1180.83</ele>
        <time>2020-11-14T13:29:07.236Z</time>
      </trkpt>
      <trkpt lat="46.88135" lon="6.65998">
        <ele>1181.89</ele>
        <time>2020-11-14T13:29:32.552Z</time>
      </trkpt>
      <trkpt lat="46.88129" lon="6.65986">
        <ele>1183.12</ele>
        <time>2020-11-14T13:30:03.076Z</time>
      </trkpt>
      <trkpt lat="46.88127" lon="6.6598">
        <ele>1183.98</ele>
        <time>2020-11-14T13:30:19.236Z</time>
      </trkpt>
      <trkpt lat="46.88126" lon="6.65973">
        <ele>1185.34</ele>
        <time>2020-11-14T13:30:36.549Z</time>
      </trkpt>
      <trkpt lat="46.88121" lon="6.65968">
        <ele>1186.99</ele>
        <time>2020-11-14T13:30:57.999Z</time>
      </trkpt>
      <trkpt lat="46.88115" lon="6.65964">
        <ele>1188.18</ele>
        <time>2020-11-14T13:31:21.353Z</time>
      </trkpt>
      <trkpt lat="46.88114" lon="6.65961">
        <ele>1188.8</ele>
        <time>2020-11-14T13:31:29.433Z</time>
      </trkpt>
      <trkpt lat="46.88113" lon="6.65957">
        <ele>1189.52</ele>
        <time>2020-11-14T13:31:39.744Z</time>
      </trkpt>
      <trkpt lat="46.88112" lon="6.65953">
        <ele>1190.48</ele>
        <time>2020-11-14T13:31:50.055Z</time>
      </trkpt>
      <trkpt lat="46.8811" lon="6.65947">
        <ele>1191.66</ele>
        <time>2020-11-14T13:32:06.216Z</time>
      </trkpt>
      <trkpt lat="46.88107" lon="6.65938">
        <ele>1193.73</ele>
        <time>2020-11-14T13:32:30.457Z</time>
      </trkpt>
      <trkpt lat="46.88106" lon="6.65928">
        <ele>1195.13</ele>
        <time>2020-11-14T13:32:54.923Z</time>
      </trkpt>
      <trkpt lat="46.88107" lon="6.65916">
        <ele>1197.33</ele>
        <time>2020-11-14T13:33:24.189Z</time>
      </trkpt>
      <trkpt lat="46.88106" lon="6.65892">
        <ele>1201.92</ele>
        <time>2020-11-14T13:34:22.399Z</time>
      </trkpt>
      <trkpt lat="46.88107" lon="6.65872">
        <ele>1204.73</ele>
        <time>2020-11-14T13:35:10.946Z</time>
      </trkpt>
      <trkpt lat="46.88107" lon="6.65855">
        <ele>1206.74</ele>
        <time>2020-11-14T13:35:52.102Z</time>
      </trkpt>
      <trkpt lat="46.88106" lon="6.65843">
        <ele>1207.81</ele>
        <time>2020-11-14T13:36:19.791Z</time>
      </trkpt>
      <trkpt lat="46.88104" lon="6.65828">
        <ele>1209.45</ele>
        <time>2020-11-14T13:36:56.789Z</time>
      </trkpt>
      <trkpt lat="46.88104" lon="6.65824">
        <ele>1209.77</ele>
        <time>2020-11-14T13:37:04.618Z</time>
      </trkpt>
      <trkpt lat="46.881" lon="6.65824">
        <ele>1209.64</ele>
        <time>2020-11-14T13:37:05.670Z</time>
      </trkpt>
      <trkpt lat="46.88097" lon="6.65823">
        <ele>1209.67</ele>
        <time>2020-11-14T13:37:08.773Z</time>
      </trkpt>
      <trkpt lat="46.88093" lon="6.65819">
        <ele>1209.91</ele>
        <time>2020-11-14T13:37:16.528Z</time>
      </trkpt>
      <trkpt lat="46.88087" lon="6.6581">
        <ele>1210.5</ele>
        <time>2020-11-14T13:37:32.247Z</time>
      </trkpt>
      <trkpt lat="46.88082" lon="6.65802">
        <ele>1210.98</ele>
        <time>2020-11-14T13:37:45.420Z</time>
      </trkpt>
      <trkpt lat="46.88076" lon="6.65785">
        <ele>1211.73</ele>
        <time>2020-11-14T13:38:07.480Z</time>
      </trkpt>
      <trkpt lat="46.88059" lon="6.65734">
        <ele>1213.82</ele>
        <time>2020-11-14T13:39:11.380Z</time>
      </trkpt>
      <trkpt lat="46.88042" lon="6.65676">
        <ele>1216.09</ele>
        <time>2020-11-14T13:40:21.851Z</time>
      </trkpt>
      <trkpt lat="46.8804" lon="6.6567">
        <ele>1217.17</ele>
        <time>2020-11-14T13:40:38.012Z</time>
      </trkpt>
      <trkpt lat="46.8804" lon="6.65669">
        <ele>1217.17</ele>
        <time>2020-11-14T13:40:38.640Z</time>
      </trkpt>
      <trkpt lat="46.88016" lon="6.65584">
        <ele>1218.25</ele>
        <time>2020-11-14T13:41:47.143Z</time>
      </trkpt>
      <trkpt lat="46.88003" lon="6.65534">
        <ele>1220.21</ele>
        <time>2020-11-14T13:42:47.273Z</time>
      </trkpt>
      <trkpt lat="46.87995" lon="6.65502">
        <ele>1221.56</ele>
        <time>2020-11-14T13:43:26.726Z</time>
      </trkpt>
      <trkpt lat="46.87991" lon="6.6548">
        <ele>1222.5</ele>
        <time>2020-11-14T13:43:53.539Z</time>
      </trkpt>
      <trkpt lat="46.87989" lon="6.6547">
        <ele>1223</ele>
        <time>2020-11-14T13:44:06.719Z</time>
      </trkpt>
      <trkpt lat="46.87987" lon="6.65463">
        <ele>1223.41</ele>
        <time>2020-11-14T13:44:17.004Z</time>
      </trkpt>
      <trkpt lat="46.87984" lon="6.65457">
        <ele>1223.78</ele>
        <time>2020-11-14T13:44:26.597Z</time>
      </trkpt>
      <trkpt lat="46.87982" lon="6.65452">
        <ele>1224.11</ele>
        <time>2020-11-14T13:44:34.732Z</time>
      </trkpt>
      <trkpt lat="46.87977" lon="6.65443">
        <ele>1224.66</ele>
        <time>2020-11-14T13:44:49.312Z</time>
      </trkpt>
      <trkpt lat="46.87971" lon="6.65434">
        <ele>1225.26</ele>
        <time>2020-11-14T13:45:05.169Z</time>
      </trkpt>
      <trkpt lat="46.87968" lon="6.65427">
        <ele>1225.56</ele>
        <time>2020-11-14T13:45:14.426Z</time>
      </trkpt>
      <trkpt lat="46.87964" lon="6.65417">
        <ele>1225.67</ele>
        <time>2020-11-14T13:45:22.758Z</time>
      </trkpt>
      <trkpt lat="46.87958" lon="6.654">
        <ele>1226.13</ele>
        <time>2020-11-14T13:45:40.475Z</time>
      </trkpt>
      <trkpt lat="46.87951" lon="6.65371">
        <ele>1227.09</ele>
        <time>2020-11-14T13:46:13.296Z</time>
      </trkpt>
      <trkpt lat="46.87942" lon="6.65321">
        <ele>1229.33</ele>
        <time>2020-11-14T13:47:15.495Z</time>
      </trkpt>
      <trkpt lat="46.87937" lon="6.65295">
        <ele>1230.42</ele>
        <time>2020-11-14T13:47:47.005Z</time>
      </trkpt>
      <trkpt lat="46.87935" lon="6.6528">
        <ele>1231.02</ele>
        <time>2020-11-14T13:48:04.636Z</time>
      </trkpt>
      <trkpt lat="46.87935" lon="6.65268">
        <ele>1231.61</ele>
        <time>2020-11-14T13:48:20.016Z</time>
      </trkpt>
      <trkpt lat="46.87937" lon="6.65258">
        <ele>1231.98</ele>
        <time>2020-11-14T13:48:31.600Z</time>
      </trkpt>
      <trkpt lat="46.87941" lon="6.65246">
        <ele>1232.44</ele>
        <time>2020-11-14T13:48:46.291Z</time>
      </trkpt>
      <trkpt lat="46.87944" lon="6.65235">
        <ele>1232.82</ele>
        <time>2020-11-14T13:48:59.034Z</time>
      </trkpt>
      <trkpt lat="46.87944" lon="6.65225">
        <ele>1233.18</ele>
        <time>2020-11-14T13:49:10.204Z</time>
      </trkpt>
      <trkpt lat="46.87941" lon="6.65199">
        <ele>1234.2</ele>
        <time>2020-11-14T13:49:40.449Z</time>
      </trkpt>
      <trkpt lat="46.87937" lon="6.6518">
        <ele>1234.64</ele>
        <time>2020-11-14T13:49:58.189Z</time>
      </trkpt>
      <trkpt lat="46.87937" lon="6.65179">
        <ele>1234.64</ele>
        <time>2020-11-14T13:49:58.817Z</time>
      </trkpt>
      <trkpt lat="46.87934" lon="6.65166">
        <ele>1235.07</ele>
        <time>2020-11-14T13:50:13.477Z</time>
      </trkpt>
      <trkpt lat="46.87926" lon="6.6513">
        <ele>1236.26</ele>
        <time>2020-11-14T13:50:53.959Z</time>
      </trkpt>
      <trkpt lat="46.87917" lon="6.65099">
        <ele>1237.61</ele>
        <time>2020-11-14T13:51:33.141Z</time>
      </trkpt>
      <trkpt lat="46.87916" lon="6.65095">
        <ele>1237.79</ele>
        <time>2020-11-14T13:51:38.208Z</time>
      </trkpt>
      <trkpt lat="46.87913" lon="6.6508">
        <ele>1238.36</ele>
        <time>2020-11-14T13:51:55.747Z</time>
      </trkpt>
      <trkpt lat="46.87911" lon="6.65068">
        <ele>1239.05</ele>
        <time>2020-11-14T13:52:12.860Z</time>
      </trkpt>
      <trkpt lat="46.87909" lon="6.65055">
        <ele>1239.51</ele>
        <time>2020-11-14T13:52:27.533Z</time>
      </trkpt>
      <trkpt lat="46.87909" lon="6.65044">
        <ele>1240.16</ele>
        <time>2020-11-14T13:52:43.393Z</time>
      </trkpt>
      <trkpt lat="46.87911" lon="6.65032">
        <ele>1240.73</ele>
        <time>2020-11-14T13:52:58.706Z</time>
      </trkpt>
      <trkpt lat="46.87912" lon="6.65023">
        <ele>1241.23</ele>
        <time>2020-11-14T13:53:11.184Z</time>
      </trkpt>
      <trkpt lat="46.87912" lon="6.65017">
        <ele>1241.57</ele>
        <time>2020-11-14T13:53:19.579Z</time>
      </trkpt>
      <trkpt lat="46.8791" lon="6.64994">
        <ele>1242.92</ele>
        <time>2020-11-14T13:53:52.649Z</time>
      </trkpt>
      <trkpt lat="46.87909" lon="6.64975">
        <ele>1243.72</ele>
        <time>2020-11-14T13:54:15.254Z</time>
      </trkpt>
      <trkpt lat="46.8791" lon="6.64966">
        <ele>1243.9</ele>
        <time>2020-11-14T13:54:23.036Z</time>
      </trkpt>
      <trkpt lat="46.87912" lon="6.64959">
        <ele>1243.9</ele>
        <time>2020-11-14T13:54:27.798Z</time>
      </trkpt>
      <trkpt lat="46.87916" lon="6.64945">
        <ele>1244.25</ele>
        <time>2020-11-14T13:54:41.583Z</time>
      </trkpt>
      <trkpt lat="46.87931" lon="6.64913">
        <ele>1245.28</ele>
        <time>2020-11-14T13:55:19.383Z</time>
      </trkpt>
      <trkpt lat="46.87933" lon="6.64903">
        <ele>1245.46</ele>
        <time>2020-11-14T13:55:27.893Z</time>
      </trkpt>
      <trkpt lat="46.87935" lon="6.6489">
        <ele>1245.63</ele>
        <time>2020-11-14T13:55:37.982Z</time>
      </trkpt>
      <trkpt lat="46.87937" lon="6.64861">
        <ele>1246.02</ele>
        <time>2020-11-14T13:56:00.273Z</time>
      </trkpt>
      <trkpt lat="46.87942" lon="6.64817">
        <ele>1246.37</ele>
        <time>2020-11-14T13:56:31.559Z</time>
      </trkpt>
      <trkpt lat="46.8796" lon="6.64693">
        <ele>1246.17</ele>
        <time>2020-11-14T13:57:48.407Z</time>
      </trkpt>
      <trkpt lat="46.87976" lon="6.64584">
        <ele>1245.02</ele>
        <time>2020-11-14T13:58:12.803Z</time>
      </trkpt>
      <trkpt lat="46.87976" lon="6.64584">
        <ele>1245.02</ele>
        <time>2020-11-14T13:58:12.803Z</time>
      </trkpt>
      <trkpt lat="46.8798" lon="6.6456">
        <ele>1243.87</ele>
        <time>2020-11-14T13:58:16.397Z</time>
      </trkpt>
      <trkpt lat="46.87993" lon="6.64476">
        <ele>1243.12</ele>
        <time>2020-11-14T13:58:35.811Z</time>
      </trkpt>
      <trkpt lat="46.87998" lon="6.64438">
        <ele>1242.7</ele>
        <time>2020-11-14T13:58:44.197Z</time>
      </trkpt>
      <trkpt lat="46.88" lon="6.64415">
        <ele>1242.34</ele>
        <time>2020-11-14T13:58:48.831Z</time>
      </trkpt>
      <trkpt lat="46.88001" lon="6.64397">
        <ele>1242.24</ele>
        <time>2020-11-14T13:58:53.160Z</time>
      </trkpt>
      <trkpt lat="46.88001" lon="6.64377">
        <ele>1242.09</ele>
        <time>2020-11-14T13:58:57.772Z</time>
      </trkpt>
      <trkpt lat="46.88" lon="6.64354">
        <ele>1241.64</ele>
        <time>2020-11-14T13:59:02.091Z</time>
      </trkpt>
      <trkpt lat="46.87998" lon="6.64281">
        <ele>1241.09</ele>
        <time>2020-11-14T13:59:18.933Z</time>
      </trkpt>
      <trkpt lat="46.87997" lon="6.64258">
        <ele>1240.98</ele>
        <time>2020-11-14T13:59:32.000Z</time>
      </trkpt>
      <trkpt lat="46.87996" lon="6.64238">
        <ele>1241.02</ele>
        <time>2020-11-14T13:59:44.932Z</time>
      </trkpt>
      <trkpt lat="46.87997" lon="6.64233">
        <ele>1241.23</ele>
        <time>2020-11-14T13:59:51.007Z</time>
      </trkpt>
      <trkpt lat="46.87998" lon="6.64227">
        <ele>1241.2</ele>
        <time>2020-11-14T13:59:54.503Z</time>
      </trkpt>
      <trkpt lat="46.88" lon="6.64222">
        <ele>1241.14</ele>
        <time>2020-11-14T13:59:55.769Z</time>
      </trkpt>
      <trkpt lat="46.88006" lon="6.64215">
        <ele>1241.32</ele>
        <time>2020-11-14T14:00:04.745Z</time>
      </trkpt>
      <trkpt lat="46.8802" lon="6.64199">
        <ele>1241.65</ele>
        <time>2020-11-14T14:00:24.402Z</time>
      </trkpt>
      <trkpt lat="46.88046" lon="6.64166">
        <ele>1242.08</ele>
        <time>2020-11-14T14:01:00.093Z</time>
      </trkpt>
      <trkpt lat="46.88084" lon="6.64118">
        <ele>1243.21</ele>
        <time>2020-11-14T14:01:58.166Z</time>
      </trkpt>
      <trkpt lat="46.88092" lon="6.64108">
        <ele>1243.31</ele>
        <time>2020-11-14T14:02:08.750Z</time>
      </trkpt>
      <trkpt lat="46.88096" lon="6.64103">
        <ele>1243.42</ele>
        <time>2020-11-14T14:02:14.725Z</time>
      </trkpt>
      <trkpt lat="46.88098" lon="6.64099">
        <ele>1243.7</ele>
        <time>2020-11-14T14:02:21.645Z</time>
      </trkpt>
      <trkpt lat="46.88099" lon="6.64095">
        <ele>1243.82</ele>
        <time>2020-11-14T14:02:25.940Z</time>
      </trkpt>
      <trkpt lat="46.88099" lon="6.6409">
        <ele>1243.8</ele>
        <time>2020-11-14T14:02:28.820Z</time>
      </trkpt>
      <trkpt lat="46.88099" lon="6.64086">
        <ele>1243.92</ele>
        <time>2020-11-14T14:02:33.018Z</time>
      </trkpt>
      <trkpt lat="46.88095" lon="6.64076">
        <ele>1243.94</ele>
        <time>2020-11-14T14:02:40.463Z</time>
      </trkpt>
      <trkpt lat="46.88055" lon="6.64099">
        <ele>1242.42</ele>
        <time>2020-11-14T14:02:51.449Z</time>
      </trkpt>
      <trkpt lat="46.8803" lon="6.64113">
        <ele>1241.35</ele>
        <time>2020-11-14T14:02:57.993Z</time>
      </trkpt>
      <trkpt lat="46.88003" lon="6.64129">
        <ele>1240.34</ele>
        <time>2020-11-14T14:03:05.492Z</time>
      </trkpt>
      <trkpt lat="46.87998" lon="6.64132">
        <ele>1240.16</ele>
        <time>2020-11-14T14:03:06.902Z</time>
      </trkpt>
      <trkpt lat="46.87983" lon="6.64139">
        <ele>1239.56</ele>
        <time>2020-11-14T14:03:10.821Z</time>
      </trkpt>
      <trkpt lat="46.87969" lon="6.64144">
        <ele>1239.08</ele>
        <time>2020-11-14T14:03:14.582Z</time>
      </trkpt>
      <trkpt lat="46.87955" lon="6.64146">
        <ele>1238.91</ele>
        <time>2020-11-14T14:03:19.260Z</time>
      </trkpt>
      <trkpt lat="46.87939" lon="6.64145">
        <ele>1238.59</ele>
        <time>2020-11-14T14:03:24.093Z</time>
      </trkpt>
      <trkpt lat="46.87902" lon="6.64139">
        <ele>1238</ele>
        <time>2020-11-14T14:03:35.899Z</time>
      </trkpt>
      <trkpt lat="46.87886" lon="6.64135">
        <ele>1237.85</ele>
        <time>2020-11-14T14:03:41.503Z</time>
      </trkpt>
      <trkpt lat="46.87869" lon="6.64129">
        <ele>1237.64</ele>
        <time>2020-11-14T14:03:47.325Z</time>
      </trkpt>
      <trkpt lat="46.87854" lon="6.6412">
        <ele>1237.6</ele>
        <time>2020-11-14T14:04:01.670Z</time>
      </trkpt>
      <trkpt lat="46.87837" lon="6.64107">
        <ele>1237.41</ele>
        <time>2020-11-14T14:04:08.235Z</time>
      </trkpt>
      <trkpt lat="46.87825" lon="6.64095">
        <ele>1237.37</ele>
        <time>2020-11-14T14:04:21.042Z</time>
      </trkpt>
      <trkpt lat="46.87812" lon="6.64079">
        <ele>1237.11</ele>
        <time>2020-11-14T14:04:26.467Z</time>
      </trkpt>
      <trkpt lat="46.87807" lon="6.64073">
        <ele>1237</ele>
        <time>2020-11-14T14:04:28.489Z</time>
      </trkpt>
      <trkpt lat="46.87789" lon="6.64049">
        <ele>1236.22</ele>
        <time>2020-11-14T14:04:34.928Z</time>
      </trkpt>
      <trkpt lat="46.87751" lon="6.64">
        <ele>1233.97</ele>
        <time>2020-11-14T14:04:46.809Z</time>
      </trkpt>
      <trkpt lat="46.87749" lon="6.63987">
        <ele>1233.52</ele>
        <time>2020-11-14T14:04:48.852Z</time>
      </trkpt>
      <trkpt lat="46.87749" lon="6.63985">
        <ele>1233.29</ele>
        <time>2020-11-14T14:04:49.143Z</time>
      </trkpt>
    </trkseg>
  </trk>
</gpx>